Time,TemperatureF,DewpointF,PressureIn,WindDirection,WindDirectionDegrees,WindSpeedMPH,WindSpeedGustMPH,Humidity,HourlyPrecipIn,Conditions,Clouds,dailyrainin,SoftwareType,DateUTC
2013-02-16 00:00:00,65.0,63.5,29.88,NW,326,1.0,2.0,95,0.00,,SCT020,0.35,VWS V14.01,2013-02-16 05:00:00,
2013-02-16 00:02:00,65.0,63.5,29.88,NW,326,0.0,1.0,95,0.00,,SCT020,0.00,VWS V14.01,2013-02-16 05:02:00,
2013-02-16 00:07:00,65.0,63.5,29.88,NW,326,0.0,1.0,95,0.00,,SCT020,0.00,VWS V14.01,2013-02-16 05:07:00,
2013-02-16 00:08:00,65.0,63.5,29.88,NW,326,0.0,1.0,95,0.00,,SCT020,0.00,VWS V14.01,2013-02-16 05:08:00,
2013-02-16 00:10:00,65.0,63.5,29.88,NW,326,0.0,0.0,95,0.00,,SCT020,0.00,VWS V14.01,2013-02-16 05:10:00,
2013-02-16 00:13:00,65.0,63.5,29.88,NW,326,0.0,0.0,95,0.00,,SCT020,0.00,VWS V14.01,2013-02-16 05:13:00,
2013-02-16 00:15:00,65.0,63.5,29.87,NW,326,0.0,0.0,95,0.00,,SCT020,0.00,VWS V14.01,2013-02-16 05:15:00,
2013-02-16 00:16:00,65.0,63.5,29.87,NW,326,0.0,0.0,95,0.00,,SCT020,0.00,VWS V14.01,2013-02-16 05:16:00,
2013-02-16 00:18:00,65.0,63.5,29.87,NW,305,0.0,1.0,95,0.00,,SCT020,0.00,VWS V14.01,2013-02-16 05:18:00,
2013-02-16 00:20:00,65.2,63.7,29.87,NW,305,0.0,0.0,95,0.00,,SCT020,0.00,VWS V14.01,2013-02-16 05:20:00,
2013-02-16 00:21:00,65.2,63.7,29.87,NW,305,0.0,0.0,95,0.00,,SCT020,0.00,VWS V14.01,2013-02-16 05:21:00,
2013-02-16 00:23:00,65.2,63.7,29.87,West,278,0.0,2.0,95,0.00,,SCT020,0.00,VWS V14.01,2013-02-16 05:23:00,
2013-02-16 00:24:00,65.2,63.7,29.87,West,278,1.0,2.0,95,0.00,,SCT020,0.00,VWS V14.01,2013-02-16 05:24:00,
2013-02-16 00:27:00,65.0,63.5,29.87,West,274,1.0,1.0,95,0.00,,SCT020,0.00,VWS V14.01,2013-02-16 05:27:00,
2013-02-16 00:28:00,65.0,63.5,29.87,West,281,2.0,2.0,95,0.00,,SCT020,0.00,VWS V14.01,2013-02-16 05:28:00,
2013-02-16 00:30:00,65.0,63.5,29.87,North,0,0.0,2.0,95,0.00,,SCT020,0.00,VWS V14.01,2013-02-16 05:30:00,
2013-02-16 00:32:00,65.0,63.5,29.87,NNW,335,1.0,2.0,95,0.00,,SCT020,0.00,VWS V14.01,2013-02-16 05:32:00,
2013-02-16 00:33:00,65.0,63.5,29.87,NNW,335,0.0,1.0,95,0.00,,SCT020,0.00,VWS V14.01,2013-02-16 05:33:00,
2013-02-16 00:35:00,65.0,63.5,29.87,NNW,340,1.0,2.0,95,0.00,,SCT020,0.00,VWS V14.01,2013-02-16 05:35:00,
2013-02-16 00:37:00,65.0,63.5,29.87,WNW,294,2.0,2.0,95,0.00,,SCT020,0.00,VWS V14.01,2013-02-16 05:37:00,
2013-02-16 00:40:00,65.0,63.5,29.87,West,281,0.0,2.0,95,0.00,,SCT020,0.00,VWS V14.01,2013-02-16 05:40:00,
2013-02-16 00:41:00,65.0,63.5,29.87,NW,309,4.0,4.0,95,0.00,,SCT020,0.00,VWS V14.01,2013-02-16 05:41:00,
2013-02-16 00:42:00,65.0,63.5,29.87,NW,315,1.0,5.0,95,0.00,,SCT020,0.00,VWS V14.01,2013-02-16 05:42:00,
2013-02-16 00:47:00,64.8,63.3,29.87,WNW,282,0.0,0.0,95,0.00,,SCT020,0.00,VWS V14.01,2013-02-16 05:47:00,
2013-02-16 00:52:00,64.8,63.3,29.87,WNW,282,0.0,0.0,95,0.00,,SCT020,0.00,VWS V14.01,2013-02-16 05:52:00,
2013-02-16 00:53:00,64.7,63.2,29.87,WNW,282,0.0,0.0,95,0.00,,SCT020,0.00,VWS V14.01,2013-02-16 05:53:00,
2013-02-16 00:54:00,64.7,63.2,29.87,WNW,282,0.0,0.0,95,0.00,,SCT020,0.00,VWS V14.01,2013-02-16 05:54:00,
2013-02-16 00:58:00,64.8,63.3,29.87,WNW,282,1.0,1.0,95,0.00,,SCT020,0.00,VWS V14.01,2013-02-16 05:58:00,
2013-02-16 00:59:00,64.8,63.3,29.87,WNW,282,1.0,1.0,95,0.00,,SCT020,0.00,VWS V14.01,2013-02-16 05:59:00,
2013-02-16 01:03:00,64.7,63.2,29.87,WNW,282,1.0,1.0,95,0.00,,SCT020,0.00,VWS V14.01,2013-02-16 06:03:00,
2013-02-16 01:06:00,64.8,63.3,29.87,WNW,282,0.0,1.0,95,0.00,,SCT020,0.00,VWS V14.01,2013-02-16 06:06:00,
2013-02-16 01:07:00,64.7,63.2,29.87,NW,322,2.0,2.0,95,0.00,,SCT020,0.00,VWS V14.01,2013-02-16 06:07:00,
2013-02-16 01:10:00,64.7,63.2,29.87,NNW,336,3.0,3.0,95,0.00,,SCT020,0.00,VWS V14.01,2013-02-16 06:10:00,
2013-02-16 01:12:00,64.7,63.2,29.87,NNW,346,0.0,1.0,95,0.00,,SCT020,0.00,VWS V14.01,2013-02-16 06:12:00,
2013-02-16 01:14:00,64.7,63.2,29.87,NNW,346,0.0,0.0,95,0.00,,SCT020,0.00,VWS V14.01,2013-02-16 06:14:00,
2013-02-16 01:15:00,64.7,63.2,29.87,NNW,344,0.0,0.0,95,0.00,,SCT020,0.00,VWS V14.01,2013-02-16 06:15:00,
2013-02-16 01:16:00,64.7,63.2,29.87,WNW,288,1.0,2.0,95,0.00,,SCT020,0.00,VWS V14.01,2013-02-16 06:16:00,
2013-02-16 01:20:00,64.7,63.2,29.87,NW,325,1.0,2.0,95,0.00,,SCT020,0.00,VWS V14.01,2013-02-16 06:20:00,
2013-02-16 01:21:00,64.7,63.2,29.87,NW,322,1.0,2.0,95,0.00,,SCT020,0.00,VWS V14.01,2013-02-16 06:21:00,
2013-02-16 01:23:00,64.7,63.2,29.87,NW,312,2.0,2.0,95,0.00,,SCT020,0.00,VWS V14.01,2013-02-16 06:23:00,
2013-02-16 01:28:00,64.7,63.2,29.87,NW,313,2.0,4.0,95,0.00,,SCT020,0.00,VWS V14.01,2013-02-16 06:28:00,
2013-02-16 01:29:00,64.7,63.2,29.87,WNW,302,0.0,2.0,95,0.00,,SCT020,0.00,VWS V14.01,2013-02-16 06:29:00,
2013-02-16 01:30:00,64.7,63.2,29.86,WNW,302,0.0,1.0,95,0.00,,SCT020,0.00,VWS V14.01,2013-02-16 06:30:00,
2013-02-16 01:32:00,64.7,63.2,29.86,WNW,289,3.0,3.0,95,0.00,,SCT020,0.00,VWS V14.01,2013-02-16 06:32:00,
2013-02-16 01:36:00,64.5,63.0,29.86,NW,323,2.0,3.0,95,0.00,,SCT020,0.00,VWS V14.01,2013-02-16 06:36:00,
2013-02-16 01:37:00,64.5,63.0,29.86,NW,320,2.0,2.0,95,0.00,,SCT020,0.00,VWS V14.01,2013-02-16 06:37:00,
2013-02-16 01:39:00,64.5,63.0,29.86,NW,315,2.0,3.0,95,0.00,,SCT020,0.00,VWS V14.01,2013-02-16 06:39:00,
2013-02-16 01:40:00,64.5,63.0,29.86,West,261,2.0,3.0,95,0.00,,SCT020,0.00,VWS V14.01,2013-02-16 06:40:00,
2013-02-16 01:42:00,64.5,63.0,29.86,NW,309,0.0,2.0,95,0.00,,SCT020,0.00,VWS V14.01,2013-02-16 06:42:00,
2013-02-16 01:43:00,64.5,63.0,29.86,NW,309,0.0,1.0,95,0.00,,SCT020,0.00,VWS V14.01,2013-02-16 06:43:00,
2013-02-16 01:45:00,64.5,63.0,29.86,WNW,289,1.0,2.0,95,0.00,,SCT020,0.00,VWS V14.01,2013-02-16 06:45:00,
2013-02-16 01:48:00,64.5,63.0,29.86,NW,305,1.0,3.0,95,0.00,,SCT020,0.00,VWS V14.01,2013-02-16 06:48:00,
2013-02-16 01:50:00,64.5,63.0,29.86,West,267,5.0,6.0,95,0.00,,SCT020,0.00,VWS V14.01,2013-02-16 06:50:00,
2013-02-16 01:51:00,64.3,62.8,29.86,NW,306,1.0,5.0,95,0.00,,SCT020,0.00,VWS V14.01,2013-02-16 06:51:00,
2013-02-16 01:55:00,64.3,62.8,29.86,NW,311,1.0,2.0,95,0.00,,SCT020,0.00,VWS V14.01,2013-02-16 06:55:00,
2013-02-16 01:56:00,64.3,62.8,29.86,NW,311,0.0,1.0,95,0.00,,SCT020,0.00,VWS V14.01,2013-02-16 06:56:00,
2013-02-16 01:57:00,64.3,62.8,29.86,WNW,299,4.0,6.0,95,0.00,,SCT020,0.00,VWS V14.01,2013-02-16 06:57:00,
2013-02-16 02:01:00,64.3,62.8,29.86,NW,305,1.0,3.0,95,0.00,,SCT020,0.00,VWS V14.01,2013-02-16 07:01:00,
2013-02-16 02:02:00,64.3,62.8,29.86,WNW,295,1.0,4.0,95,0.00,,SCT020,0.00,VWS V14.01,2013-02-16 07:02:00,
2013-02-16 02:04:00,64.3,62.8,29.86,NW,309,1.0,2.0,95,0.00,,SCT020,0.00,VWS V14.01,2013-02-16 07:04:00,
2013-02-16 02:08:00,64.2,62.7,29.86,NW,319,2.0,2.0,95,0.00,,SCT020,0.00,VWS V14.01,2013-02-16 07:08:00,
2013-02-16 02:10:00,64.2,62.7,29.86,West,278,2.0,3.0,95,0.00,,SCT020,0.00,VWS V14.01,2013-02-16 07:10:00,
2013-02-16 02:11:00,64.2,62.7,29.86,NW,323,2.0,2.0,95,0.00,,SCT020,0.00,VWS V14.01,2013-02-16 07:11:00,
2013-02-16 02:12:00,64.2,62.7,29.86,WNW,294,2.0,5.0,95,0.00,,SCT020,0.00,VWS V14.01,2013-02-16 07:12:00,
2013-02-16 02:16:00,64.2,62.7,29.85,NW,323,1.0,1.0,95,0.00,,SCT020,0.00,VWS V14.01,2013-02-16 07:16:00,
2013-02-16 02:17:00,64.2,62.7,29.85,NW,312,2.0,6.0,95,0.00,,SCT020,0.00,VWS V14.01,2013-02-16 07:17:00,
2013-02-16 02:20:00,64.0,62.5,29.85,West,272,0.0,1.0,95,0.00,,SCT020,0.00,VWS V14.01,2013-02-16 07:20:00,
2013-02-16 02:22:00,64.0,62.5,29.85,NNW,343,0.0,1.0,95,0.00,,SCT020,0.00,VWS V14.01,2013-02-16 07:22:00,
2013-02-16 02:23:00,64.0,62.5,29.85,NNW,343,0.0,1.0,95,0.00,,SCT020,0.00,VWS V14.01,2013-02-16 07:23:00,
2013-02-16 02:25:00,64.0,62.5,29.85,NW,309,0.0,1.0,95,0.00,,SCT020,0.00,VWS V14.01,2013-02-16 07:25:00,
2013-02-16 02:26:00,64.0,62.5,29.85,NW,311,1.0,1.0,95,0.00,,SCT020,0.00,VWS V14.01,2013-02-16 07:26:00,
2013-02-16 02:28:00,63.9,62.4,29.85,NNW,337,2.0,3.0,95,0.00,,SCT020,0.00,VWS V14.01,2013-02-16 07:28:00,
2013-02-16 02:31:00,63.9,62.4,29.84,WNW,287,2.0,3.0,95,0.00,,SCT020,0.00,VWS V14.01,2013-02-16 07:31:00,
2013-02-16 02:33:00,63.9,62.4,29.84,WNW,291,0.0,0.0,95,0.00,,SCT020,0.00,VWS V14.01,2013-02-16 07:33:00,
2013-02-16 02:34:00,63.7,62.2,29.84,WNW,291,1.0,3.0,95,0.00,,SCT020,0.00,VWS V14.01,2013-02-16 07:34:00,
2013-02-16 02:36:00,63.7,62.2,29.84,WNW,291,1.0,1.0,95,0.00,,SCT020,0.00,VWS V14.01,2013-02-16 07:36:00,
2013-02-16 02:40:00,63.5,62.0,29.84,NW,309,0.0,4.0,95,0.00,,SCT020,0.00,VWS V14.01,2013-02-16 07:40:00,
2013-02-16 02:45:00,63.5,62.0,29.83,NNW,336,1.0,2.0,95,0.00,,SCT020,0.00,VWS V14.01,2013-02-16 07:45:00,
2013-02-16 02:46:00,63.5,62.0,29.83,NW,326,2.0,2.0,95,0.00,,SCT020,0.00,VWS V14.01,2013-02-16 07:46:00,
2013-02-16 02:47:00,63.4,62.0,29.83,WNW,285,1.0,3.0,95,0.00,,SCT020,0.00,VWS V14.01,2013-02-16 07:47:00,
2013-02-16 02:48:00,63.4,62.0,29.83,WNW,298,2.0,2.0,95,0.00,,SCT020,0.00,VWS V14.01,2013-02-16 07:48:00,
2013-02-16 02:52:00,63.4,62.0,29.83,NW,311,0.0,1.0,95,0.00,,SCT020,0.00,VWS V14.01,2013-02-16 07:52:00,
2013-02-16 02:53:00,63.4,62.0,29.83,NW,312,0.0,1.0,95,0.00,,SCT020,0.00,VWS V14.01,2013-02-16 07:53:00,
2013-02-16 02:54:00,63.4,62.0,29.83,NW,312,0.0,0.0,95,0.00,,SCT020,0.00,VWS V14.01,2013-02-16 07:54:00,
2013-02-16 02:58:00,63.4,62.0,29.83,NW,312,0.0,0.0,95,0.00,,SCT020,0.00,VWS V14.01,2013-02-16 07:58:00,
2013-02-16 02:59:00,63.2,61.8,29.83,NW,312,0.0,1.0,95,0.00,,SCT020,0.00,VWS V14.01,2013-02-16 07:59:00,
2013-02-16 03:02:00,63.2,61.8,29.82,NW,312,2.0,2.0,95,0.00,,SCT020,0.00,VWS V14.01,2013-02-16 08:02:00,
2013-02-16 03:03:00,63.2,61.8,29.82,NW,309,1.0,2.0,95,0.00,,SCT020,0.00,VWS V14.01,2013-02-16 08:03:00,
2013-02-16 03:07:00,63.2,61.8,29.82,WNW,299,0.0,2.0,95,0.00,,SCT020,0.00,VWS V14.01,2013-02-16 08:07:00,
2013-02-16 03:08:00,63.2,61.8,29.82,WNW,299,1.0,3.0,95,0.00,,SCT020,0.00,VWS V14.01,2013-02-16 08:08:00,
2013-02-16 03:12:00,63.2,61.8,29.82,WNW,288,0.0,3.0,95,0.00,,SCT020,0.00,VWS V14.01,2013-02-16 08:12:00,
2013-02-16 03:13:00,63.2,61.8,29.82,WNW,287,1.0,3.0,95,0.00,,SCT020,0.00,VWS V14.01,2013-02-16 08:13:00,
2013-02-16 03:16:00,63.2,61.8,29.83,WNW,289,0.0,1.0,95,0.00,,SCT020,0.00,VWS V14.01,2013-02-16 08:16:00,
2013-02-16 03:17:00,63.2,61.8,29.83,WNW,289,0.0,1.0,95,0.00,,SCT020,0.00,VWS V14.01,2013-02-16 08:17:00,
2013-02-16 03:18:00,63.2,61.8,29.83,WNW,289,1.0,1.0,95,0.00,,SCT020,0.00,VWS V14.01,2013-02-16 08:18:00,
2013-02-16 03:21:00,63.4,62.0,29.83,WNW,289,0.0,0.0,95,0.00,,SCT020,0.00,VWS V14.01,2013-02-16 08:21:00,
2013-02-16 03:24:00,63.2,61.8,29.83,NW,304,1.0,1.0,95,0.00,,SCT020,0.00,VWS V14.01,2013-02-16 08:24:00,
2013-02-16 03:25:00,63.2,61.8,29.83,NW,311,0.0,3.0,95,0.00,,SCT020,0.00,VWS V14.01,2013-02-16 08:25:00,
2013-02-16 03:26:00,63.2,61.8,29.83,NW,311,0.0,0.0,95,0.00,,SCT020,0.00,VWS V14.01,2013-02-16 08:26:00,
2013-02-16 03:28:00,63.2,61.8,29.83,NW,313,0.0,1.0,95,0.00,,SCT020,0.00,VWS V14.01,2013-02-16 08:28:00,
2013-02-16 03:29:00,63.1,61.7,29.83,NW,308,3.0,3.0,95,0.00,,SCT020,0.00,VWS V14.01,2013-02-16 08:29:00,
2013-02-16 03:33:00,63.1,61.7,29.82,NW,319,0.0,1.0,95,0.00,,SCT020,0.00,VWS V14.01,2013-02-16 08:33:00,
2013-02-16 03:34:00,63.1,61.7,29.82,NW,319,0.0,0.0,95,0.00,,SCT020,0.00,VWS V14.01,2013-02-16 08:34:00,
2013-02-16 03:36:00,63.1,61.7,29.82,NW,319,1.0,1.0,95,0.00,,SCT020,0.00,VWS V14.01,2013-02-16 08:36:00,
2013-02-16 03:38:00,63.1,61.7,29.82,NW,315,1.0,2.0,95,0.00,,SCT020,0.00,VWS V14.01,2013-02-16 08:38:00,
2013-02-16 03:40:00,63.1,61.7,29.82,NW,315,1.0,2.0,95,0.00,,SCT020,0.00,VWS V14.01,2013-02-16 08:40:00,
2013-02-16 03:42:00,63.1,61.7,29.82,NW,315,0.0,0.0,95,0.00,,SCT020,0.00,VWS V14.01,2013-02-16 08:42:00,
2013-02-16 03:43:00,63.1,61.7,29.82,NW,313,1.0,2.0,95,0.00,,SCT020,0.00,VWS V14.01,2013-02-16 08:43:00,
2013-02-16 03:46:00,63.1,61.7,29.82,NW,316,0.0,0.0,95,0.00,,SCT020,0.00,VWS V14.01,2013-02-16 08:46:00,
2013-02-16 03:47:00,63.1,61.7,29.82,NW,316,0.0,0.0,95,0.00,,SCT020,0.00,VWS V14.01,2013-02-16 08:47:00,
2013-02-16 03:48:00,63.1,61.7,29.82,NW,316,0.0,0.0,95,0.00,,SCT020,0.00,VWS V14.01,2013-02-16 08:48:00,
2013-02-16 03:50:00,63.1,61.7,29.82,NW,316,1.0,1.0,95,0.00,,SCT020,0.00,VWS V14.01,2013-02-16 08:50:00,
2013-02-16 03:51:00,63.1,61.7,29.82,NW,316,0.0,1.0,95,0.00,,SCT020,0.00,VWS V14.01,2013-02-16 08:51:00,
2013-02-16 03:54:00,63.1,61.7,29.82,NW,316,0.0,0.0,95,0.00,,SCT020,0.00,VWS V14.01,2013-02-16 08:54:00,
2013-02-16 03:58:00,63.1,61.7,29.82,NW,316,0.0,0.0,95,0.00,,SCT020,0.00,VWS V14.01,2013-02-16 08:58:00,
2013-02-16 03:59:00,63.1,61.7,29.82,NW,316,0.0,0.0,95,0.00,,SCT020,0.00,VWS V14.01,2013-02-16 08:59:00,
2013-02-16 04:02:00,63.1,61.7,29.82,NW,316,0.0,0.0,95,0.00,,SCT020,0.00,VWS V14.01,2013-02-16 09:02:00,
2013-02-16 04:05:00,62.9,61.5,29.82,NW,316,0.0,0.0,95,0.00,,SCT020,0.00,VWS V14.01,2013-02-16 09:05:00,
2013-02-16 04:06:00,62.9,61.5,29.82,NW,316,0.0,0.0,95,0.00,,SCT020,0.00,VWS V14.01,2013-02-16 09:06:00,
2013-02-16 04:11:00,63.1,61.7,29.82,NW,316,1.0,1.0,95,0.00,,SCT020,0.00,VWS V14.01,2013-02-16 09:11:00,
2013-02-16 04:12:00,63.1,61.7,29.82,WNW,294,0.0,3.0,95,0.00,,SCT020,0.00,VWS V14.01,2013-02-16 09:12:00,
2013-02-16 04:15:00,63.1,61.7,29.82,WNW,294,0.0,0.0,95,0.00,,SCT020,0.00,VWS V14.01,2013-02-16 09:15:00,
2013-02-16 04:16:00,63.1,61.7,29.82,WNW,294,0.0,0.0,95,0.00,,SCT020,0.00,VWS V14.01,2013-02-16 09:16:00,
2013-02-16 04:17:00,63.1,61.7,29.82,WNW,294,0.0,0.0,95,0.00,,SCT020,0.00,VWS V14.01,2013-02-16 09:17:00,
2013-02-16 04:20:00,63.1,61.7,29.82,WNW,294,0.0,0.0,95,0.00,,SCT020,0.00,VWS V14.01,2013-02-16 09:20:00,
2013-02-16 04:22:00,63.1,61.7,29.82,WNW,294,0.0,0.0,95,0.00,,SCT020,0.00,VWS V14.01,2013-02-16 09:22:00,
2013-02-16 04:24:00,63.1,61.7,29.82,WNW,294,1.0,1.0,95,0.00,,SCT020,0.00,VWS V14.01,2013-02-16 09:24:00,
2013-02-16 04:29:00,62.9,61.5,29.82,WNW,294,0.0,1.0,95,0.00,,SCT020,0.00,VWS V14.01,2013-02-16 09:29:00,
2013-02-16 04:30:00,63.1,61.7,29.82,WNW,294,0.0,1.0,95,0.00,,SCT020,0.00,VWS V14.01,2013-02-16 09:30:00,
2013-02-16 04:31:00,63.1,61.7,29.82,NNW,330,2.0,2.0,95,0.00,,SCT020,0.00,VWS V14.01,2013-02-16 09:31:00,
2013-02-16 04:35:00,62.9,61.5,29.82,NNW,330,0.0,1.0,95,0.00,,SCT020,0.00,VWS V14.01,2013-02-16 09:35:00,
2013-02-16 04:37:00,62.9,61.5,29.82,WNW,299,0.0,2.0,95,0.00,,SCT020,0.00,VWS V14.01,2013-02-16 09:37:00,
2013-02-16 04:41:00,62.9,61.5,29.82,WNW,294,0.0,3.0,95,0.00,,SCT020,0.00,VWS V14.01,2013-02-16 09:41:00,
2013-02-16 04:42:00,62.9,61.5,29.82,NW,325,1.0,2.0,95,0.00,,SCT020,0.00,VWS V14.01,2013-02-16 09:42:00,
2013-02-16 04:47:00,62.9,61.5,29.81,NNW,336,0.0,1.0,95,0.00,,SCT020,0.00,VWS V14.01,2013-02-16 09:47:00,
2013-02-16 04:48:00,62.9,61.5,29.81,NNW,336,1.0,1.0,95,0.00,,SCT020,0.00,VWS V14.01,2013-02-16 09:48:00,
2013-02-16 04:49:00,62.9,61.5,29.81,NNW,336,0.0,1.0,95,0.00,,SCT020,0.00,VWS V14.01,2013-02-16 09:49:00,
2013-02-16 04:50:00,62.9,61.5,29.81,NNW,336,0.0,0.0,95,0.00,,SCT020,0.00,VWS V14.01,2013-02-16 09:50:00,
2013-02-16 04:55:00,62.9,61.5,29.81,NW,325,0.0,2.0,95,0.00,,SCT020,0.00,VWS V14.01,2013-02-16 09:55:00,
2013-02-16 04:58:00,62.9,61.5,29.81,NW,325,0.0,0.0,95,0.00,,SCT020,0.00,VWS V14.01,2013-02-16 09:58:00,
2013-02-16 05:02:00,62.9,61.5,29.81,NW,325,0.0,0.0,95,0.00,,SCT020,0.00,VWS V14.01,2013-02-16 10:02:00,
2013-02-16 05:03:00,62.9,61.5,29.81,NW,325,0.0,1.0,95,0.00,,SCT020,0.00,VWS V14.01,2013-02-16 10:03:00,
2013-02-16 05:04:00,62.9,61.5,29.81,NW,325,0.0,0.0,95,0.00,,SCT020,0.00,VWS V14.01,2013-02-16 10:04:00,
2013-02-16 05:07:00,62.9,61.5,29.81,NW,325,0.0,1.0,95,0.00,,SCT020,0.00,VWS V14.01,2013-02-16 10:07:00,
2013-02-16 05:09:00,62.9,61.5,29.81,NW,325,0.0,0.0,95,0.00,,SCT020,0.00,VWS V14.01,2013-02-16 10:09:00,
2013-02-16 05:10:00,62.9,61.5,29.81,NW,325,1.0,1.0,95,0.00,,SCT020,0.00,VWS V14.01,2013-02-16 10:10:00,
2013-02-16 05:13:00,62.9,61.5,29.81,NW,325,0.0,0.0,95,0.00,,SCT020,0.00,VWS V14.01,2013-02-16 10:13:00,
2013-02-16 05:16:00,62.9,61.5,29.81,NW,325,0.0,0.0,95,0.00,,SCT020,0.00,VWS V14.01,2013-02-16 10:16:00,
2013-02-16 05:18:00,62.9,61.5,29.81,NW,325,0.0,0.0,95,0.00,,SCT020,0.00,VWS V14.01,2013-02-16 10:18:00,
2013-02-16 05:19:00,62.9,61.5,29.81,NW,325,0.0,0.0,95,0.00,,SCT020,0.00,VWS V14.01,2013-02-16 10:19:00,
2013-02-16 05:20:00,62.9,61.5,29.81,NW,325,0.0,0.0,95,0.00,,SCT020,0.00,VWS V14.01,2013-02-16 10:20:00,
2013-02-16 05:23:00,62.9,61.5,29.81,NW,325,0.0,0.0,95,0.00,,SCT020,0.00,VWS V14.01,2013-02-16 10:23:00,
2013-02-16 05:24:00,62.9,61.5,29.81,NW,325,0.0,0.0,95,0.00,,SCT020,0.00,VWS V14.01,2013-02-16 10:24:00,
2013-02-16 05:25:00,62.9,61.5,29.81,NW,325,0.0,0.0,95,0.00,,SCT020,0.00,VWS V14.01,2013-02-16 10:25:00,
2013-02-16 05:31:00,63.1,61.7,29.82,NW,322,1.0,1.0,95,0.00,,SCT020,0.00,VWS V14.01,2013-02-16 10:31:00,
2013-02-16 05:32:00,63.1,61.7,29.82,NW,322,1.0,1.0,95,0.00,,SCT020,0.00,VWS V14.01,2013-02-16 10:32:00,
2013-02-16 05:35:00,63.1,61.7,29.82,NW,322,0.0,1.0,95,0.00,,SCT020,0.00,VWS V14.01,2013-02-16 10:35:00,
2013-02-16 05:37:00,63.1,61.7,29.82,NW,322,0.0,1.0,95,0.00,,SCT020,0.00,VWS V14.01,2013-02-16 10:37:00,
2013-02-16 05:38:00,63.1,61.7,29.82,NW,322,0.0,0.0,95,0.00,,SCT020,0.00,VWS V14.01,2013-02-16 10:38:00,
2013-02-16 05:39:00,63.1,61.7,29.82,NW,322,0.0,0.0,95,0.00,,SCT020,0.00,VWS V14.01,2013-02-16 10:39:00,
2013-02-16 05:42:00,63.2,61.8,29.82,NW,322,2.0,2.0,95,0.00,,SCT020,0.00,VWS V14.01,2013-02-16 10:42:00,
2013-02-16 05:45:00,63.2,61.8,29.82,NW,315,1.0,1.0,95,0.00,,SCT020,0.00,VWS V14.01,2013-02-16 10:45:00,
2013-02-16 05:47:00,63.2,61.8,29.82,NW,315,0.0,1.0,95,0.00,,SCT020,0.00,VWS V14.01,2013-02-16 10:47:00,
2013-02-16 05:49:00,63.2,61.8,29.82,NW,315,0.0,0.0,95,0.00,,SCT020,0.00,VWS V14.01,2013-02-16 10:49:00,
2013-02-16 05:53:00,63.2,61.8,29.82,NW,315,0.0,1.0,95,0.00,,SCT020,0.00,VWS V14.01,2013-02-16 10:53:00,
2013-02-16 05:55:00,63.2,61.8,29.82,NW,315,0.0,0.0,95,0.00,,SCT020,0.00,VWS V14.01,2013-02-16 10:55:00,
2013-02-16 05:58:00,63.2,61.8,29.82,NW,315,1.0,1.0,95,0.00,,SCT020,0.00,VWS V14.01,2013-02-16 10:58:00,
2013-02-16 06:00:00,63.2,61.8,29.82,NW,315,0.0,0.0,95,0.00,,SCT020,0.00,VWS V14.01,2013-02-16 11:00:00,
2013-02-16 06:01:00,63.2,61.8,29.82,NW,315,0.0,0.0,95,0.00,,SCT020,0.00,VWS V14.01,2013-02-16 11:01:00,
2013-02-16 06:03:00,63.2,61.8,29.82,NW,315,0.0,1.0,95,0.00,,SCT020,0.00,VWS V14.01,2013-02-16 11:03:00,
2013-02-16 06:05:00,63.2,61.8,29.82,NW,315,0.0,1.0,95,0.00,,SCT020,0.00,VWS V14.01,2013-02-16 11:05:00,
2013-02-16 06:06:00,63.2,61.8,29.82,NW,315,0.0,0.0,95,0.00,,SCT020,0.00,VWS V14.01,2013-02-16 11:06:00,
2013-02-16 06:08:00,63.2,61.8,29.82,NW,315,1.0,2.0,95,0.00,,SCT020,0.00,VWS V14.01,2013-02-16 11:08:00,
2013-02-16 06:13:00,63.2,61.8,29.82,NNW,332,0.0,0.0,95,0.00,,SCT020,0.00,VWS V14.01,2013-02-16 11:13:00,
2013-02-16 06:15:00,63.2,61.8,29.82,NNW,332,0.0,1.0,95,0.00,,SCT020,0.00,VWS V14.01,2013-02-16 11:15:00,
2013-02-16 06:19:00,63.2,61.8,29.82,NNW,330,0.0,1.0,95,0.00,,SCT020,0.00,VWS V14.01,2013-02-16 11:19:00,
2013-02-16 06:20:00,63.2,61.8,29.82,NNW,330,0.0,1.0,95,0.00,,SCT020,0.00,VWS V14.01,2013-02-16 11:20:00,
2013-02-16 06:22:00,63.2,61.8,29.82,NW,315,2.0,2.0,95,0.00,,SCT020,0.00,VWS V14.01,2013-02-16 11:22:00,
2013-02-16 06:26:00,63.2,61.8,29.82,WNW,288,1.0,1.0,95,0.00,,SCT020,0.00,VWS V14.01,2013-02-16 11:26:00,
2013-02-16 06:28:00,63.2,61.8,29.82,WNW,288,0.0,1.0,95,0.00,,SCT020,0.00,VWS V14.01,2013-02-16 11:28:00,
2013-02-16 06:30:00,63.2,61.8,29.83,WNW,292,0.0,1.0,95,0.00,,SCT020,0.00,VWS V14.01,2013-02-16 11:30:00,
2013-02-16 06:33:00,63.2,61.8,29.83,WNW,292,0.0,1.0,95,0.00,,SCT020,0.00,VWS V14.01,2013-02-16 11:33:00,
2013-02-16 06:35:00,63.4,62.0,29.83,WNW,294,2.0,5.0,95,0.00,,SCT020,0.00,VWS V14.01,2013-02-16 11:35:00,
2013-02-16 06:36:00,63.4,62.0,29.83,NNW,347,1.0,2.0,95,0.00,,SCT020,0.00,VWS V14.01,2013-02-16 11:36:00,
2013-02-16 06:37:00,63.4,62.0,29.83,North,349,0.0,1.0,95,0.00,,SCT020,0.00,VWS V14.01,2013-02-16 11:37:00,
2013-02-16 06:40:00,63.4,62.0,29.83,West,275,2.0,2.0,95,0.00,,SCT020,0.00,VWS V14.01,2013-02-16 11:40:00,
2013-02-16 06:41:00,63.4,62.0,29.83,NW,319,0.0,2.0,95,0.00,,SCT020,0.00,VWS V14.01,2013-02-16 11:41:00,
2013-02-16 06:42:00,63.4,62.0,29.83,NW,309,2.0,2.0,95,0.00,,SCT020,0.00,VWS V14.01,2013-02-16 11:42:00,
2013-02-16 06:47:00,63.4,61.7,29.83,NNW,330,6.0,6.0,94,0.00,,SCT020,0.00,VWS V14.01,2013-02-16 11:47:00,
2013-02-16 06:49:00,63.4,61.7,29.83,NNW,333,1.0,3.0,94,0.00,,SCT020,0.00,VWS V14.01,2013-02-16 11:49:00,
2013-02-16 06:52:00,63.4,62.0,29.83,NW,319,0.0,3.0,95,0.00,,SCT020,0.00,VWS V14.01,2013-02-16 11:52:00,
2013-02-16 06:53:00,63.4,62.0,29.83,NW,319,0.0,0.0,95,0.00,,SCT020,0.00,VWS V14.01,2013-02-16 11:53:00,
2013-02-16 06:55:00,63.4,62.0,29.83,WNW,284,2.0,3.0,95,0.00,,SCT020,0.00,VWS V14.01,2013-02-16 11:55:00,
2013-02-16 06:57:00,63.4,62.0,29.83,NNW,330,1.0,3.0,95,0.00,,SCT020,0.00,VWS V14.01,2013-02-16 11:57:00,
2013-02-16 06:58:00,63.4,62.0,29.83,NNW,333,2.0,3.0,95,0.00,,SCT020,0.00,VWS V14.01,2013-02-16 11:58:00,
2013-02-16 07:01:00,63.4,62.0,29.83,WNW,282,1.0,2.0,95,0.00,,SCT020,0.00,VWS V14.01,2013-02-16 12:01:00,
2013-02-16 07:03:00,63.4,62.0,29.83,WNW,295,0.0,3.0,95,0.00,,SCT020,0.00,VWS V14.01,2013-02-16 12:03:00,
2013-02-16 07:04:00,63.4,62.0,29.83,WNW,295,0.0,2.0,95,0.00,,SCT020,0.00,VWS V14.01,2013-02-16 12:04:00,
2013-02-16 07:05:00,63.4,62.0,29.83,WNW,294,1.0,5.0,95,0.00,,SCT020,0.00,VWS V14.01,2013-02-16 12:05:00,
2013-02-16 07:09:00,63.5,61.8,29.83,WNW,302,1.0,3.0,94,0.00,,SCT020,0.00,VWS V14.01,2013-02-16 12:09:00,
2013-02-16 07:10:00,63.5,61.8,29.83,WNW,294,2.0,5.0,94,0.00,,SCT020,0.00,VWS V14.01,2013-02-16 12:10:00,
2013-02-16 07:14:00,63.5,61.8,29.83,WNW,301,2.0,3.0,94,0.00,,SCT020,0.00,VWS V14.01,2013-02-16 12:14:00,
2013-02-16 07:16:00,63.4,61.7,29.84,NW,311,2.0,2.0,94,0.00,,SCT020,0.00,VWS V14.01,2013-02-16 12:16:00,
2013-02-16 07:20:00,63.4,61.7,29.84,NW,320,2.0,5.0,94,0.00,,SCT020,0.00,VWS V14.01,2013-02-16 12:20:00,
2013-02-16 07:22:00,63.4,61.7,29.84,WNW,296,2.0,3.0,94,0.00,,SCT020,0.00,VWS V14.01,2013-02-16 12:22:00,
2013-02-16 07:27:00,63.4,61.7,29.84,North,357,4.0,5.0,94,0.00,,SCT020,0.00,VWS V14.01,2013-02-16 12:27:00,
2013-02-16 07:28:00,63.4,61.7,29.84,NW,319,2.0,4.0,94,0.00,,SCT020,0.00,VWS V14.01,2013-02-16 12:28:00,
2013-02-16 07:32:00,63.4,61.7,29.83,WNW,298,0.0,1.0,94,0.00,,SCT020,0.00,VWS V14.01,2013-02-16 12:32:00,
2013-02-16 07:33:00,63.4,61.7,29.83,WNW,298,0.0,1.0,94,0.00,,SCT020,0.00,VWS V14.01,2013-02-16 12:33:00,
2013-02-16 07:37:00,63.5,61.8,29.83,WNW,299,0.0,1.0,94,0.00,,SCT020,0.00,VWS V14.01,2013-02-16 12:37:00,
2013-02-16 07:39:00,63.5,61.8,29.83,WNW,301,0.0,1.0,94,0.00,,SCT020,0.00,VWS V14.01,2013-02-16 12:39:00,
2013-02-16 07:41:00,63.5,61.8,29.83,NW,325,1.0,3.0,94,0.00,,SCT020,0.00,VWS V14.01,2013-02-16 12:41:00,
2013-02-16 07:44:00,63.5,61.8,29.83,WNW,289,0.0,2.0,94,0.00,,SCT020,0.00,VWS V14.01,2013-02-16 12:44:00,
2013-02-16 07:46:00,63.5,61.8,29.84,WNW,292,0.0,1.0,94,0.00,,SCT020,0.00,VWS V14.01,2013-02-16 12:46:00,
2013-02-16 07:47:00,63.5,61.8,29.84,NW,309,2.0,2.0,94,0.00,,SCT020,0.00,VWS V14.01,2013-02-16 12:47:00,
2013-02-16 07:49:00,63.5,61.8,29.84,NW,323,0.0,2.0,94,0.00,,SCT020,0.00,VWS V14.01,2013-02-16 12:49:00,
2013-02-16 07:50:00,63.5,61.8,29.84,North,0,2.0,2.0,94,0.00,,SCT020,0.00,VWS V14.01,2013-02-16 12:50:00,
2013-02-16 07:53:00,63.5,61.8,29.84,NNW,337,1.0,3.0,94,0.00,,SCT020,0.00,VWS V14.01,2013-02-16 12:53:00,
2013-02-16 07:56:00,63.5,61.8,29.84,NNW,337,0.0,0.0,94,0.00,,SCT020,0.00,VWS V14.01,2013-02-16 12:56:00,
2013-02-16 07:58:00,63.5,61.8,29.84,West,280,2.0,4.0,94,0.00,,SCT020,0.00,VWS V14.01,2013-02-16 12:58:00,
2013-02-16 08:00:00,63.5,61.8,29.84,WNW,298,2.0,4.0,94,0.00,,SCT020,0.00,VWS V14.01,2013-02-16 13:00:00,
2013-02-16 08:04:00,63.4,61.7,29.84,WNW,299,3.0,3.0,94,0.00,,SCT020,0.00,VWS V14.01,2013-02-16 13:04:00,
2013-02-16 08:05:00,63.4,61.7,29.84,NW,320,1.0,3.0,94,0.00,,SCT020,0.00,VWS V14.01,2013-02-16 13:05:00,
2013-02-16 08:06:00,63.4,61.7,29.84,NW,320,1.0,1.0,94,0.00,,SCT020,0.00,VWS V14.01,2013-02-16 13:06:00,
2013-02-16 08:10:00,63.4,61.3,29.84,NNW,346,1.0,6.0,93,0.00,,SCT020,0.00,VWS V14.01,2013-02-16 13:10:00,
2013-02-16 08:11:00,63.4,61.3,29.84,NNW,336,6.0,6.0,93,0.00,,SCT020,0.00,VWS V14.01,2013-02-16 13:11:00,
2013-02-16 08:14:00,63.5,61.4,29.84,North,349,0.0,1.0,93,0.00,,SCT020,0.00,VWS V14.01,2013-02-16 13:14:00,
2013-02-16 08:16:00,63.5,61.4,29.84,NNW,344,1.0,1.0,93,0.00,,SCT020,0.00,VWS V14.01,2013-02-16 13:16:00,
2013-02-16 08:17:00,63.5,61.4,29.84,NNW,339,1.0,1.0,93,0.00,,SCT020,0.00,VWS V14.01,2013-02-16 13:17:00,
2013-02-16 08:21:00,63.7,61.6,29.84,NNW,339,0.0,0.0,93,0.00,,SCT020,0.00,VWS V14.01,2013-02-16 13:21:00,
2013-02-16 08:22:00,63.7,61.6,29.84,NW,305,1.0,2.0,93,0.00,,SCT020,0.00,VWS V14.01,2013-02-16 13:22:00,
2013-02-16 08:23:00,63.7,61.6,29.84,West,263,3.0,4.0,93,0.00,,SCT020,0.00,VWS V14.01,2013-02-16 13:23:00,
2013-02-16 08:28:00,63.7,61.6,29.84,NW,306,3.0,3.0,93,0.00,,SCT020,0.00,VWS V14.01,2013-02-16 13:28:00,
2013-02-16 08:29:00,63.7,61.6,29.84,West,263,1.0,3.0,93,0.00,,SCT020,0.00,VWS V14.01,2013-02-16 13:29:00,
2013-02-16 08:30:00,63.9,61.8,29.85,West,280,1.0,3.0,93,0.00,,SCT020,0.00,VWS V14.01,2013-02-16 13:30:00,
2013-02-16 08:33:00,63.9,61.8,29.85,NW,323,0.0,3.0,93,0.00,,SCT020,0.00,VWS V14.01,2013-02-16 13:33:00,
2013-02-16 08:35:00,63.9,61.8,29.85,North,1,1.0,2.0,93,0.00,,SCT020,0.00,VWS V14.01,2013-02-16 13:35:00,
2013-02-16 08:36:00,63.9,61.8,29.85,NNW,339,1.0,2.0,93,0.00,,SCT020,0.00,VWS V14.01,2013-02-16 13:36:00,
2013-02-16 08:42:00,63.9,61.5,29.85,WNW,301,6.0,6.0,92,0.00,,SCT020,0.00,VWS V14.01,2013-02-16 13:42:00,
2013-02-16 08:44:00,63.9,61.5,29.85,NW,305,2.0,3.0,92,0.00,,SCT020,0.00,VWS V14.01,2013-02-16 13:44:00,
2013-02-16 08:46:00,64.0,61.6,29.85,NW,305,0.0,1.0,92,0.00,,SCT020,0.00,VWS V14.01,2013-02-16 13:46:00,
2013-02-16 08:50:00,64.2,61.8,29.85,SW,236,3.0,3.0,92,0.00,,SCT020,0.00,VWS V14.01,2013-02-16 13:50:00,
2013-02-16 08:51:00,64.2,61.8,29.85,North,0,2.0,3.0,92,0.00,,SCT020,0.00,VWS V14.01,2013-02-16 13:51:00,
2013-02-16 08:55:00,64.5,62.1,29.85,WNW,291,2.0,5.0,92,0.00,,SCT020,0.00,VWS V14.01,2013-02-16 13:55:00,
2013-02-16 08:56:00,64.5,62.1,29.85,WNW,287,5.0,5.0,92,0.00,,SCT020,0.00,VWS V14.01,2013-02-16 13:56:00,
2013-02-16 09:00:00,64.7,62.0,29.85,North,352,3.0,7.0,91,0.00,,SCT020,0.00,VWS V14.01,2013-02-16 14:00:00,
2013-02-16 09:01:00,64.7,62.0,29.85,West,272,3.0,6.0,91,0.00,,SCT020,0.00,VWS V14.01,2013-02-16 14:01:00,
2013-02-16 09:02:00,64.5,61.8,29.85,NNW,337,1.0,10.0,91,0.00,,SCT020,0.00,VWS V14.01,2013-02-16 14:02:00,
2013-02-16 09:05:00,64.7,62.0,29.85,West,267,1.0,5.0,91,0.00,,SCT020,0.00,VWS V14.01,2013-02-16 14:05:00,
2013-02-16 09:06:00,64.7,62.0,29.85,North,0,2.0,4.0,91,0.00,,SCT020,0.00,VWS V14.01,2013-02-16 14:06:00,
2013-02-16 09:07:00,64.7,62.0,29.85,North,356,1.0,2.0,91,0.00,,SCT020,0.00,VWS V14.01,2013-02-16 14:07:00,
2013-02-16 09:12:00,65.0,62.3,29.85,West,277,0.0,6.0,91,0.00,,SCT020,0.00,VWS V14.01,2013-02-16 14:12:00,
2013-02-16 09:14:00,65.0,62.0,29.85,West,271,7.0,8.0,90,0.00,,SCT020,0.00,VWS V14.01,2013-02-16 14:14:00,
2013-02-16 09:18:00,65.0,62.0,29.86,NW,326,1.0,2.0,90,0.00,,SCT020,0.00,VWS V14.01,2013-02-16 14:18:00,
2013-02-16 09:19:00,65.0,62.0,29.86,NW,308,6.0,6.0,90,0.00,,SCT020,0.00,VWS V14.01,2013-02-16 14:19:00,
2013-02-16 09:20:00,65.0,62.0,29.86,NW,318,1.0,6.0,90,0.00,,SCT020,0.00,VWS V14.01,2013-02-16 14:20:00,
2013-02-16 09:26:00,65.2,62.2,29.86,West,277,2.0,3.0,90,0.00,,SCT020,0.00,VWS V14.01,2013-02-16 14:26:00,
2013-02-16 09:29:00,65.3,62.0,29.86,NW,313,5.0,5.0,89,0.00,,SCT020,0.00,VWS V14.01,2013-02-16 14:29:00,
2013-02-16 09:30:00,65.3,62.0,29.86,NW,319,3.0,5.0,89,0.00,,SCT020,0.00,VWS V14.01,2013-02-16 14:30:00,
2013-02-16 09:32:00,65.5,62.2,29.86,WNW,285,4.0,4.0,89,0.00,,SCT020,0.00,VWS V14.01,2013-02-16 14:32:00,
2013-02-16 09:35:00,65.6,62.3,29.86,WNW,299,3.0,5.0,89,0.00,,SCT020,0.00,VWS V14.01,2013-02-16 14:35:00,
2013-02-16 09:36:00,65.6,62.0,29.86,NW,316,3.0,7.0,88,0.00,,SCT020,0.00,VWS V14.01,2013-02-16 14:36:00,
2013-02-16 09:37:00,65.5,61.9,29.86,NW,315,1.0,6.0,88,0.00,,SCT020,0.00,VWS V14.01,2013-02-16 14:37:00,
2013-02-16 09:41:00,65.6,61.6,29.86,NNE,21,4.0,5.0,87,0.00,,SCT020,0.00,VWS V14.01,2013-02-16 14:41:00,
2013-02-16 09:42:00,65.6,61.6,29.86,North,353,5.0,5.0,87,0.00,,SCT020,0.00,VWS V14.01,2013-02-16 14:42:00,
2013-02-16 09:43:00,65.6,61.6,29.86,West,281,2.0,7.0,87,0.00,,SCT020,0.00,VWS V14.01,2013-02-16 14:43:00,
2013-02-16 09:47:00,65.6,61.3,29.86,West,268,5.0,7.0,86,0.00,,SCT020,0.00,VWS V14.01,2013-02-16 14:47:00,
2013-02-16 09:48:00,65.6,61.3,29.86,WNW,284,3.0,8.0,86,0.00,,SCT020,0.00,VWS V14.01,2013-02-16 14:48:00,
2013-02-16 09:50:00,65.8,61.5,29.86,NNW,343,4.0,5.0,86,0.00,,SCT020,0.00,VWS V14.01,2013-02-16 14:50:00,
2013-02-16 09:52:00,66.0,61.7,29.86,NNW,343,1.0,2.0,86,0.00,,SCT020,0.00,VWS V14.01,2013-02-16 14:52:00,
2013-02-16 09:57:00,66.3,61.7,29.86,WNW,285,4.0,5.0,85,0.00,,SCT020,0.00,VWS V14.01,2013-02-16 14:57:00,
2013-02-16 09:58:00,66.3,61.7,29.86,NNW,333,0.0,4.0,85,0.00,,SCT020,0.00,VWS V14.01,2013-02-16 14:58:00,
2013-02-16 10:01:00,66.3,61.3,29.87,WNW,301,8.0,8.0,84,0.00,,SCT020,0.00,VWS V14.01,2013-02-16 15:01:00,
2013-02-16 10:03:00,66.3,61.3,29.87,West,267,3.0,5.0,84,0.00,,SCT020,0.00,VWS V14.01,2013-02-16 15:03:00,
2013-02-16 10:07:00,66.4,61.1,29.87,NNW,333,3.0,6.0,83,0.00,,SCT020,0.00,VWS V14.01,2013-02-16 15:07:00,
2013-02-16 10:09:00,66.6,61.3,29.87,WNW,292,1.0,7.0,83,0.00,,SCT020,0.00,VWS V14.01,2013-02-16 15:09:00,
2013-02-16 10:10:00,66.6,60.9,29.87,NW,308,1.0,3.0,82,0.00,,SCT020,0.00,VWS V14.01,2013-02-16 15:10:00,
2013-02-16 10:11:00,66.6,60.9,29.87,NW,316,2.0,7.0,82,0.00,,SCT020,0.00,VWS V14.01,2013-02-16 15:11:00,
2013-02-16 10:12:00,66.8,60.8,29.87,NW,320,4.0,6.0,81,0.00,,SCT020,0.00,VWS V14.01,2013-02-16 15:12:00,
2013-02-16 10:15:00,66.9,61.2,29.87,NW,313,5.0,7.0,82,0.00,,SCT020,0.00,VWS V14.01,2013-02-16 15:15:00,
2013-02-16 10:16:00,66.9,60.9,29.87,NW,316,5.0,7.0,81,0.00,,SCT020,0.00,VWS V14.01,2013-02-16 15:16:00,
2013-02-16 10:17:00,66.9,60.9,29.87,West,278,5.0,8.0,81,0.00,,SCT020,0.00,VWS V14.01,2013-02-16 15:17:00,
2013-02-16 10:21:00,67.1,61.1,29.87,West,274,2.0,4.0,81,0.00,,SCT020,0.00,VWS V14.01,2013-02-16 15:21:00,
2013-02-16 10:22:00,67.1,61.4,29.87,North,10,1.0,2.0,82,0.00,,SCT020,0.00,VWS V14.01,2013-02-16 15:22:00,
2013-02-16 10:23:00,67.3,61.6,29.87,NNW,333,4.0,5.0,82,0.00,,SCT020,0.00,VWS V14.01,2013-02-16 15:23:00,
2013-02-16 10:26:00,67.4,61.7,29.87,WNW,282,3.0,4.0,82,0.00,,SCT020,0.00,VWS V14.01,2013-02-16 15:26:00,
2013-02-16 10:29:00,67.6,61.6,29.87,WNW,295,1.0,3.0,81,0.00,,SCT020,0.00,VWS V14.01,2013-02-16 15:29:00,
2013-02-16 10:32:00,67.8,61.8,29.87,WNW,301,6.0,6.0,81,0.00,,SCT020,0.00,VWS V14.01,2013-02-16 15:32:00,
2013-02-16 10:34:00,67.9,61.5,29.87,West,277,3.0,3.0,80,0.00,,SCT020,0.00,VWS V14.01,2013-02-16 15:34:00,
2013-02-16 10:38:00,68.1,61.0,29.87,WNW,296,6.0,8.0,78,0.00,,SCT020,0.00,VWS V14.01,2013-02-16 15:38:00,
2013-02-16 10:41:00,68.4,61.3,29.87,WSW,251,2.0,5.0,78,0.00,,SCT020,0.00,VWS V14.01,2013-02-16 15:41:00,
2013-02-16 10:42:00,68.4,61.3,29.87,West,278,6.0,8.0,78,0.00,,SCT020,0.00,VWS V14.01,2013-02-16 15:42:00,
2013-02-16 10:45:00,68.9,61.8,29.87,West,272,6.0,8.0,78,0.00,,SCT020,0.00,VWS V14.01,2013-02-16 15:45:00,
2013-02-16 10:46:00,68.9,61.4,29.87,West,263,5.0,10.0,77,0.00,,SCT020,0.00,VWS V14.01,2013-02-16 15:46:00,
2013-02-16 10:47:00,69.1,61.6,29.87,NNW,332,3.0,8.0,77,0.00,,SCT020,0.00,VWS V14.01,2013-02-16 15:47:00,
2013-02-16 10:51:00,69.3,61.4,29.87,West,265,10.0,10.0,76,0.00,,SCT020,0.00,VWS V14.01,2013-02-16 15:51:00,
2013-02-16 10:53:00,69.3,61.0,29.87,WSW,256,4.0,7.0,75,0.00,,SCT020,0.00,VWS V14.01,2013-02-16 15:53:00,
2013-02-16 10:54:00,69.4,61.1,29.87,NW,305,7.0,7.0,75,0.00,,SCT020,0.00,VWS V14.01,2013-02-16 15:54:00,
2013-02-16 10:58:00,69.4,61.1,29.87,West,274,8.0,8.0,75,0.00,,SCT020,0.00,VWS V14.01,2013-02-16 15:58:00,
2013-02-16 10:59:00,69.3,61.0,29.87,WNW,292,8.0,11.0,75,0.00,,SCT020,0.00,VWS V14.01,2013-02-16 15:59:00,
2013-02-16 11:00:00,69.3,61.0,29.88,West,281,7.0,9.0,75,0.00,,SCT020,0.00,VWS V14.01,2013-02-16 16:00:00,
2013-02-16 11:04:00,69.1,61.2,29.88,WNW,288,9.0,13.0,76,0.00,,SCT020,0.00,VWS V14.01,2013-02-16 16:04:00,
2013-02-16 11:05:00,69.1,60.8,29.88,WNW,302,7.0,10.0,75,0.00,,SCT020,0.00,VWS V14.01,2013-02-16 16:05:00,
2013-02-16 11:06:00,69.1,60.8,29.88,WSW,246,8.0,13.0,75,0.00,,SCT020,0.00,VWS V14.01,2013-02-16 16:06:00,
2013-02-16 11:11:00,69.1,60.8,29.88,West,274,6.0,7.0,75,0.00,,SCT020,0.00,VWS V14.01,2013-02-16 16:11:00,
2013-02-16 11:12:00,69.3,61.0,29.88,NW,312,2.0,6.0,75,0.00,,SCT020,0.00,VWS V14.01,2013-02-16 16:12:00,
2013-02-16 11:15:00,69.6,62.1,29.87,NW,309,6.0,11.0,77,0.00,,SCT020,0.00,VWS V14.01,2013-02-16 16:15:00,
2013-02-16 11:17:00,69.6,61.3,29.87,WSW,251,7.0,12.0,75,0.00,,SCT020,0.00,VWS V14.01,2013-02-16 16:17:00,
2013-02-16 11:18:00,69.6,61.3,29.87,NW,309,7.0,11.0,75,0.00,,SCT020,0.00,VWS V14.01,2013-02-16 16:18:00,
2013-02-16 11:20:00,69.8,61.5,29.87,WNW,292,3.0,7.0,75,0.00,,SCT020,0.00,VWS V14.01,2013-02-16 16:20:00,
2013-02-16 11:22:00,69.9,60.9,29.87,West,267,2.0,9.0,73,0.00,,SCT020,0.00,VWS V14.01,2013-02-16 16:22:00,
2013-02-16 11:26:00,69.9,60.5,29.87,WNW,288,7.0,11.0,72,0.00,,SCT020,0.00,VWS V14.01,2013-02-16 16:26:00,
2013-02-16 11:28:00,70.1,61.0,29.87,West,272,9.0,9.0,73,0.00,,SCT020,0.00,VWS V14.01,2013-02-16 16:28:00,
2013-02-16 11:31:00,69.9,61.2,29.87,West,280,6.0,9.0,74,0.00,,SCT020,0.00,VWS V14.01,2013-02-16 16:31:00,
2013-02-16 11:33:00,69.9,61.2,29.87,WNW,282,8.0,11.0,74,0.00,,SCT020,0.00,VWS V14.01,2013-02-16 16:33:00,
2013-02-16 11:36:00,69.9,61.2,29.87,SW,234,6.0,10.0,74,0.00,,SCT020,0.00,VWS V14.01,2013-02-16 16:36:00,
2013-02-16 11:38:00,70.3,62.0,29.87,WNW,292,11.0,11.0,75,0.00,,SCT020,0.00,VWS V14.01,2013-02-16 16:38:00,
2013-02-16 11:41:00,70.4,61.7,29.87,West,275,6.0,12.0,74,0.00,,SCT020,0.00,VWS V14.01,2013-02-16 16:41:00,
2013-02-16 11:43:00,70.6,61.9,29.87,NW,323,5.0,8.0,74,0.00,,SCT020,0.00,VWS V14.01,2013-02-16 16:43:00,
2013-02-16 11:44:00,70.6,61.5,29.87,WSW,254,11.0,11.0,73,0.00,,SCT020,0.00,VWS V14.01,2013-02-16 16:44:00,
2013-02-16 11:48:00,70.4,61.3,29.86,West,280,12.0,13.0,73,0.00,,SCT020,0.00,VWS V14.01,2013-02-16 16:48:00,
2013-02-16 11:51:00,70.1,61.4,29.86,NW,304,7.0,12.0,74,0.00,,SCT020,0.00,VWS V14.01,2013-02-16 16:51:00,
2013-02-16 11:53:00,70.1,61.4,29.86,West,277,4.0,9.0,74,0.00,,SCT020,0.00,VWS V14.01,2013-02-16 16:53:00,
2013-02-16 11:57:00,70.4,61.3,29.86,WNW,291,6.0,8.0,73,0.00,,SCT020,0.00,VWS V14.01,2013-02-16 16:57:00,
2013-02-16 11:58:00,70.4,61.3,29.86,West,272,7.0,14.0,73,0.00,,SCT020,0.00,VWS V14.01,2013-02-16 16:58:00,
2013-02-16 11:59:00,70.6,60.8,29.86,West,267,10.0,14.0,71,0.00,,SCT020,0.00,VWS V14.01,2013-02-16 16:59:00,
2013-02-16 12:04:00,70.4,61.3,29.86,WNW,296,7.0,12.0,73,0.00,,SCT020,0.00,VWS V14.01,2013-02-16 17:04:00,
2013-02-16 12:05:00,70.6,61.1,29.86,WNW,291,8.0,8.0,72,0.00,,SCT020,0.00,VWS V14.01,2013-02-16 17:05:00,
2013-02-16 12:06:00,70.6,61.1,29.86,WNW,298,5.0,8.0,72,0.00,,SCT020,0.00,VWS V14.01,2013-02-16 17:06:00,
2013-02-16 12:10:00,70.6,61.5,29.86,WSW,258,6.0,10.0,73,0.00,,SCT020,0.00,VWS V14.01,2013-02-16 17:10:00,
2013-02-16 12:11:00,70.6,61.5,29.86,West,260,6.0,7.0,73,0.00,,SCT020,0.00,VWS V14.01,2013-02-16 17:11:00,
2013-02-16 12:15:00,70.8,60.5,29.86,NW,316,2.0,8.0,70,0.00,,SCT020,0.00,VWS V14.01,2013-02-16 17:15:00,
2013-02-16 12:18:00,70.9,59.8,29.86,West,281,4.0,11.0,68,0.00,,SCT020,0.00,VWS V14.01,2013-02-16 17:18:00,
2013-02-16 12:20:00,70.9,59.8,29.86,WSW,248,5.0,9.0,68,0.00,,SCT020,0.00,VWS V14.01,2013-02-16 17:20:00,
2013-02-16 12:22:00,71.1,60.4,29.86,West,280,5.0,8.0,69,0.00,,SCT020,0.00,VWS V14.01,2013-02-16 17:22:00,
2013-02-16 12:23:00,71.1,60.8,29.86,NW,320,7.0,11.0,70,0.00,,SCT020,0.00,VWS V14.01,2013-02-16 17:23:00,
2013-02-16 12:28:00,71.1,60.0,29.86,NW,316,4.0,6.0,68,0.00,,SCT020,0.00,VWS V14.01,2013-02-16 17:28:00,
2013-02-16 12:29:00,71.3,60.2,29.86,West,281,8.0,8.0,68,0.00,,SCT020,0.00,VWS V14.01,2013-02-16 17:29:00,
2013-02-16 12:30:00,71.3,60.2,29.85,West,281,8.0,8.0,68,0.00,,SCT020,0.00,VWS V14.01,2013-02-16 17:30:00,
2013-02-16 12:34:00,71.5,59.1,29.85,NNW,328,3.0,9.0,65,0.00,,SCT020,0.00,VWS V14.01,2013-02-16 17:34:00,
2013-02-16 12:35:00,71.5,59.1,29.85,WSW,257,8.0,13.0,65,0.00,,SCT020,0.00,VWS V14.01,2013-02-16 17:35:00,
2013-02-16 12:38:00,71.1,59.2,29.85,West,268,9.0,12.0,66,0.00,,SCT020,0.00,VWS V14.01,2013-02-16 17:38:00,
2013-02-16 12:42:00,71.3,60.2,29.85,West,270,6.0,8.0,68,0.00,,SCT020,0.00,VWS V14.01,2013-02-16 17:42:00,
2013-02-16 12:44:00,71.5,60.8,29.85,WSW,254,5.0,10.0,69,0.00,,SCT020,0.00,VWS V14.01,2013-02-16 17:44:00,
2013-02-16 12:47:00,71.3,56.2,29.85,NW,312,12.0,14.0,59,0.00,,SCT020,0.00,VWS V14.01,2013-02-16 17:47:00,
2013-02-16 12:49:00,71.5,56.4,29.85,WNW,284,10.0,13.0,59,0.00,,SCT020,0.00,VWS V14.01,2013-02-16 17:49:00,
2013-02-16 12:50:00,71.6,56.5,29.85,West,261,13.0,13.0,59,0.00,,SCT020,0.00,VWS V14.01,2013-02-16 17:50:00,
2013-02-16 12:51:00,71.6,57.5,29.85,WNW,282,7.0,13.0,61,0.00,,SCT020,0.00,VWS V14.01,2013-02-16 17:51:00,
2013-02-16 12:52:00,71.6,58.8,29.85,WNW,282,4.0,8.0,64,0.00,,SCT020,0.00,VWS V14.01,2013-02-16 17:52:00,
2013-02-16 12:55:00,72.0,59.6,29.85,NW,313,5.0,10.0,65,0.00,,SCT020,0.00,VWS V14.01,2013-02-16 17:55:00,
2013-02-16 12:56:00,72.0,59.6,29.85,WNW,294,6.0,7.0,65,0.00,,SCT020,0.00,VWS V14.01,2013-02-16 17:56:00,
2013-02-16 12:58:00,72.1,59.7,29.85,NNW,335,5.0,8.0,65,0.00,,SCT020,0.00,VWS V14.01,2013-02-16 17:58:00,
2013-02-16 13:01:00,72.1,58.8,29.84,WNW,301,9.0,11.0,63,0.00,,SCT020,0.00,VWS V14.01,2013-02-16 18:01:00,
2013-02-16 13:03:00,72.1,58.4,29.84,WSW,247,11.0,11.0,62,0.00,,SCT020,0.00,VWS V14.01,2013-02-16 18:03:00,
2013-02-16 13:06:00,72.1,58.4,29.84,WSW,243,5.0,8.0,62,0.00,,SCT020,0.00,VWS V14.01,2013-02-16 18:06:00,
2013-02-16 13:07:00,72.0,58.3,29.84,WSW,253,8.0,10.0,62,0.00,,SCT020,0.00,VWS V14.01,2013-02-16 18:07:00,
2013-02-16 13:08:00,72.1,58.4,29.84,WNW,285,7.0,13.0,62,0.00,,SCT020,0.00,VWS V14.01,2013-02-16 18:08:00,
2013-02-16 13:12:00,72.5,54.9,29.84,WNW,298,7.0,11.0,54,0.00,,SCT020,0.00,VWS V14.01,2013-02-16 18:12:00,
2013-02-16 13:13:00,72.7,54.6,29.84,NW,309,9.0,13.0,53,0.00,,SCT020,0.00,VWS V14.01,2013-02-16 18:13:00,
2013-02-16 13:15:00,72.7,54.1,29.83,West,260,6.0,13.0,52,0.00,,SCT020,0.00,VWS V14.01,2013-02-16 18:15:00,
2013-02-16 13:17:00,72.8,55.7,29.83,WNW,294,7.0,13.0,55,0.00,,SCT020,0.00,VWS V14.01,2013-02-16 18:17:00,
2013-02-16 13:19:00,73.0,54.9,29.83,WSW,253,10.0,10.0,53,0.00,,SCT020,0.00,VWS V14.01,2013-02-16 18:19:00,
2013-02-16 13:21:00,72.8,55.7,29.83,WNW,285,5.0,8.0,55,0.00,,SCT020,0.00,VWS V14.01,2013-02-16 18:21:00,
2013-02-16 13:24:00,72.7,56.1,29.83,WSW,247,7.0,11.0,56,0.00,,SCT020,0.00,VWS V14.01,2013-02-16 18:24:00,
2013-02-16 13:26:00,73.0,54.4,29.83,WNW,298,12.0,17.0,52,0.00,,SCT020,0.00,VWS V14.01,2013-02-16 18:26:00,
2013-02-16 13:27:00,73.0,50.4,29.83,WSW,247,12.0,14.0,45,0.00,,SCT020,0.00,VWS V14.01,2013-02-16 18:27:00,
2013-02-16 13:28:00,73.0,50.4,29.83,WNW,282,8.0,13.0,45,0.00,,SCT020,0.00,VWS V14.01,2013-02-16 18:28:00,
2013-02-16 13:31:00,73.2,51.2,29.82,West,268,9.0,11.0,46,0.00,,SCT020,0.00,VWS V14.01,2013-02-16 18:31:00,
2013-02-16 13:33:00,73.3,53.0,29.82,WNW,298,5.0,11.0,49,0.00,,SCT020,0.00,VWS V14.01,2013-02-16 18:33:00,
2013-02-16 13:34:00,73.3,53.0,29.82,NW,309,5.0,11.0,49,0.00,,SCT020,0.00,VWS V14.01,2013-02-16 18:34:00,
2013-02-16 13:35:00,73.5,53.2,29.82,West,275,7.0,8.0,49,0.00,,SCT020,0.00,VWS V14.01,2013-02-16 18:35:00,
2013-02-16 13:36:00,73.7,51.7,29.82,WNW,288,8.0,19.0,46,0.00,,SCT020,0.00,VWS V14.01,2013-02-16 18:36:00,
2013-02-16 13:39:00,73.7,51.7,29.82,WNW,301,6.0,14.0,46,0.00,,SCT020,0.00,VWS V14.01,2013-02-16 18:39:00,
2013-02-16 13:41:00,73.7,51.7,29.82,West,261,6.0,14.0,46,0.00,,SCT020,0.00,VWS V14.01,2013-02-16 18:41:00,
2013-02-16 13:42:00,73.5,52.6,29.82,NW,322,5.0,12.0,48,0.00,,SCT020,0.00,VWS V14.01,2013-02-16 18:42:00,
2013-02-16 13:45:00,73.7,53.4,29.82,WSW,254,6.0,10.0,49,0.00,,SCT020,0.00,VWS V14.01,2013-02-16 18:45:00,
2013-02-16 13:46:00,73.7,53.9,29.82,North,7,1.0,12.0,50,0.00,,SCT020,0.00,VWS V14.01,2013-02-16 18:46:00,
2013-02-16 13:49:00,74.0,53.7,29.82,West,281,8.0,12.0,49,0.00,,SCT020,0.00,VWS V14.01,2013-02-16 18:49:00,
2013-02-16 13:51:00,74.0,53.7,29.82,West,271,6.0,8.0,49,0.00,,SCT020,0.00,VWS V14.01,2013-02-16 18:51:00,
2013-02-16 13:52:00,74.0,53.7,29.82,West,271,6.0,6.0,49,0.00,,SCT020,0.00,VWS V14.01,2013-02-16 18:52:00,
2013-02-16 13:54:00,74.2,52.7,29.82,West,270,6.0,14.0,47,0.00,,SCT020,0.00,VWS V14.01,2013-02-16 18:54:00,
2013-02-16 13:57:00,74.0,52.5,29.82,West,281,8.0,14.0,47,0.00,,SCT020,0.00,VWS V14.01,2013-02-16 18:57:00,
2013-02-16 13:58:00,74.0,53.1,29.82,NNW,332,11.0,12.0,48,0.00,,SCT020,0.00,VWS V14.01,2013-02-16 18:58:00,
2013-02-16 13:59:00,74.0,53.1,29.82,NW,322,8.0,13.0,48,0.00,,SCT020,0.00,VWS V14.01,2013-02-16 18:59:00,
2013-02-16 14:04:00,73.9,50.6,29.82,NW,304,10.0,15.0,44,0.00,,SCT020,0.00,VWS V14.01,2013-02-16 19:04:00,
2013-02-16 14:05:00,73.9,50.6,29.82,West,277,11.0,19.0,44,0.00,,SCT020,0.00,VWS V14.01,2013-02-16 19:05:00,
2013-02-16 14:09:00,73.5,49.0,29.82,WNW,294,11.0,17.0,42,0.00,,SCT020,0.00,VWS V14.01,2013-02-16 19:09:00,
2013-02-16 14:13:00,73.2,51.2,29.82,West,268,11.0,17.0,46,0.00,,SCT020,0.00,VWS V14.01,2013-02-16 19:13:00,
2013-02-16 14:14:00,73.0,51.0,29.82,WNW,298,6.0,14.0,46,0.00,,SCT020,0.00,VWS V14.01,2013-02-16 19:14:00,
2013-02-16 14:18:00,72.8,49.6,29.82,SSW,198,10.0,17.0,44,0.00,,SCT020,0.00,VWS V14.01,2013-02-16 19:18:00,
2013-02-16 14:22:00,72.5,48.1,29.82,NNW,340,14.0,19.0,42,0.00,,SCT020,0.00,VWS V14.01,2013-02-16 19:22:00,
2013-02-16 14:23:00,72.5,48.1,29.82,West,280,16.0,16.0,42,0.00,,SCT020,0.00,VWS V14.01,2013-02-16 19:23:00,
2013-02-16 14:24:00,72.5,48.1,29.82,NW,309,8.0,16.0,42,0.00,,SCT020,0.00,VWS V14.01,2013-02-16 19:24:00,
2013-02-16 14:27:00,72.5,48.8,29.82,WNW,299,10.0,12.0,43,0.00,,SCT020,0.00,VWS V14.01,2013-02-16 19:27:00,
2013-02-16 14:29:00,72.7,49.5,29.82,WNW,302,7.0,7.0,44,0.00,,SCT020,0.00,VWS V14.01,2013-02-16 19:29:00,
2013-02-16 14:32:00,72.8,48.4,29.82,WNW,291,7.0,13.0,42,0.00,,SCT020,0.00,VWS V14.01,2013-02-16 19:32:00,
2013-02-16 14:34:00,72.8,48.4,29.82,West,281,6.0,17.0,42,0.00,,SCT020,0.00,VWS V14.01,2013-02-16 19:34:00,
2013-02-16 14:36:00,72.8,48.4,29.82,WSW,254,5.0,6.0,42,0.00,,SCT020,0.00,VWS V14.01,2013-02-16 19:36:00,
2013-02-16 14:37:00,72.8,50.2,29.82,NW,319,6.0,13.0,45,0.00,,SCT020,0.00,VWS V14.01,2013-02-16 19:37:00,
2013-02-16 14:40:00,72.5,48.8,29.82,West,280,9.0,17.0,43,0.00,,SCT020,0.00,VWS V14.01,2013-02-16 19:40:00,
2013-02-16 14:42:00,72.3,48.0,29.82,WNW,294,6.0,13.0,42,0.00,,SCT020,0.00,VWS V14.01,2013-02-16 19:42:00,
2013-02-16 14:44:00,72.3,49.8,29.82,West,275,16.0,16.0,45,0.00,,SCT020,0.00,VWS V14.01,2013-02-16 19:44:00,
2013-02-16 14:48:00,72.1,47.8,29.82,NNW,333,7.0,11.0,42,0.00,,SCT020,0.00,VWS V14.01,2013-02-16 19:48:00,
2013-02-16 14:49:00,72.1,45.8,29.82,NNW,330,7.0,11.0,39,0.00,,SCT020,0.00,VWS V14.01,2013-02-16 19:49:00,
2013-02-16 14:51:00,72.0,45.7,29.82,WNW,299,10.0,13.0,39,0.00,,SCT020,0.00,VWS V14.01,2013-02-16 19:51:00,
2013-02-16 14:55:00,72.1,44.4,29.82,West,275,7.0,17.0,37,0.00,,SCT020,0.00,VWS V14.01,2013-02-16 19:55:00,
2013-02-16 14:56:00,72.3,44.6,29.82,West,275,4.0,8.0,37,0.00,,SCT020,0.00,VWS V14.01,2013-02-16 19:56:00,
2013-02-16 15:01:00,73.0,45.9,29.82,West,281,13.0,13.0,38,0.00,,SCT020,0.00,VWS V14.01,2013-02-16 20:01:00,
2013-02-16 15:02:00,73.0,45.2,29.82,WNW,296,13.0,14.0,37,0.00,,SCT020,0.00,VWS V14.01,2013-02-16 20:02:00,
2013-02-16 15:03:00,73.0,45.2,29.82,NW,309,13.0,19.0,37,0.00,,SCT020,0.00,VWS V14.01,2013-02-16 20:03:00,
2013-02-16 15:07:00,72.7,45.0,29.82,West,275,14.0,21.0,37,0.00,,SCT020,0.00,VWS V14.01,2013-02-16 20:07:00,
2013-02-16 15:08:00,72.5,44.8,29.82,NNW,329,13.0,16.0,37,0.00,,SCT020,0.00,VWS V14.01,2013-02-16 20:08:00,
2013-02-16 15:09:00,72.5,45.5,29.82,WSW,251,7.0,13.0,38,0.00,,SCT020,0.00,VWS V14.01,2013-02-16 20:09:00,
2013-02-16 15:13:00,72.5,45.5,29.82,WSW,258,5.0,8.0,38,0.00,,SCT020,0.00,VWS V14.01,2013-02-16 20:13:00,
2013-02-16 15:14:00,72.5,44.8,29.82,West,271,9.0,16.0,37,0.00,,SCT020,0.00,VWS V14.01,2013-02-16 20:14:00,
2013-02-16 15:16:00,72.7,45.0,29.82,NW,326,2.0,8.0,37,0.00,,SCT020,0.00,VWS V14.01,2013-02-16 20:16:00,
2013-02-16 15:19:00,72.8,43.6,29.82,NNW,330,6.0,14.0,35,0.00,,SCT020,0.00,VWS V14.01,2013-02-16 20:19:00,
2013-02-16 15:21:00,72.7,44.2,29.82,WNW,284,5.0,18.0,36,0.00,,SCT020,0.00,VWS V14.01,2013-02-16 20:21:00,
2013-02-16 15:22:00,72.7,45.0,29.82,NW,325,10.0,14.0,37,0.00,,SCT020,0.00,VWS V14.01,2013-02-16 20:22:00,
2013-02-16 15:25:00,72.5,46.2,29.82,West,264,14.0,15.0,39,0.00,,SCT020,0.00,VWS V14.01,2013-02-16 20:25:00,
2013-02-16 15:27:00,72.3,44.6,29.82,West,271,8.0,12.0,37,0.00,,SCT020,0.00,VWS V14.01,2013-02-16 20:27:00,
2013-02-16 15:30:00,72.5,44.8,29.83,West,278,18.0,19.0,37,0.00,,SCT020,0.00,VWS V14.01,2013-02-16 20:30:00,
2013-02-16 15:31:00,72.3,44.6,29.83,West,277,10.0,20.0,37,0.00,,SCT020,0.00,VWS V14.01,2013-02-16 20:31:00,
2013-02-16 15:34:00,72.1,45.8,29.83,WNW,284,10.0,13.0,39,0.00,,SCT020,0.00,VWS V14.01,2013-02-16 20:34:00,
2013-02-16 15:35:00,72.1,45.1,29.83,WNW,292,7.0,14.0,38,0.00,,SCT020,0.00,VWS V14.01,2013-02-16 20:35:00,
2013-02-16 15:37:00,72.1,45.1,29.83,WSW,256,11.0,14.0,38,0.00,,SCT020,0.00,VWS V14.01,2013-02-16 20:37:00,
2013-02-16 15:38:00,72.0,46.4,29.83,WNW,289,16.0,17.0,40,0.00,,SCT020,0.00,VWS V14.01,2013-02-16 20:38:00,
2013-02-16 15:41:00,71.8,46.2,29.83,NNE,27,6.0,12.0,40,0.00,,SCT020,0.00,VWS V14.01,2013-02-16 20:41:00,
2013-02-16 15:43:00,71.8,45.5,29.83,NW,318,4.0,13.0,39,0.00,,SCT020,0.00,VWS V14.01,2013-02-16 20:43:00,
2013-02-16 15:44:00,71.8,46.9,29.83,WNW,291,12.0,12.0,41,0.00,,SCT020,0.00,VWS V14.01,2013-02-16 20:44:00,
2013-02-16 15:46:00,71.8,46.9,29.83,West,277,12.0,16.0,41,0.00,,SCT020,0.00,VWS V14.01,2013-02-16 20:46:00,
2013-02-16 15:50:00,71.8,46.9,29.83,NNW,333,13.0,20.0,41,0.00,,SCT020,0.00,VWS V14.01,2013-02-16 20:50:00,
2013-02-16 15:52:00,71.6,46.0,29.83,West,280,16.0,18.0,40,0.00,,SCT020,0.00,VWS V14.01,2013-02-16 20:52:00,
2013-02-16 15:53:00,71.5,46.6,29.83,West,263,6.0,16.0,41,0.00,,SCT020,0.00,VWS V14.01,2013-02-16 20:53:00,
2013-02-16 15:54:00,71.5,46.6,29.83,West,280,10.0,14.0,41,0.00,,SCT020,0.00,VWS V14.01,2013-02-16 20:54:00,
2013-02-16 15:57:00,71.3,47.0,29.83,West,280,8.0,13.0,42,0.00,,SCT020,0.00,VWS V14.01,2013-02-16 20:57:00,
2013-02-16 15:59:00,71.5,46.6,29.83,West,281,10.0,16.0,41,0.00,,SCT020,0.00,VWS V14.01,2013-02-16 20:59:00,
2013-02-16 16:02:00,71.5,47.2,29.83,West,275,5.0,14.0,42,0.00,,SCT020,0.00,VWS V14.01,2013-02-16 21:02:00,
2013-02-16 16:04:00,71.5,46.6,29.83,WNW,282,5.0,8.0,41,0.00,,SCT020,0.00,VWS V14.01,2013-02-16 21:04:00,
2013-02-16 16:07:00,71.5,46.6,29.83,NW,305,10.0,14.0,41,0.00,,SCT020,0.00,VWS V14.01,2013-02-16 21:07:00,
2013-02-16 16:09:00,71.3,46.4,29.83,West,260,8.0,13.0,41,0.00,,SCT020,0.00,VWS V14.01,2013-02-16 21:09:00,
2013-02-16 16:12:00,71.3,47.7,29.83,WNW,292,8.0,10.0,43,0.00,,SCT020,0.00,VWS V14.01,2013-02-16 21:12:00,
2013-02-16 16:14:00,71.1,47.5,29.83,WNW,299,8.0,14.0,43,0.00,,SCT020,0.00,VWS V14.01,2013-02-16 21:14:00,
2013-02-16 16:16:00,71.1,46.2,29.84,NNW,337,9.0,16.0,41,0.00,,SCT020,0.00,VWS V14.01,2013-02-16 21:16:00,
2013-02-16 16:18:00,70.9,46.7,29.84,WSW,256,13.0,13.0,42,0.00,,SCT020,0.00,VWS V14.01,2013-02-16 21:18:00,
2013-02-16 16:19:00,70.8,46.6,29.84,NW,309,11.0,20.0,42,0.00,,SCT020,0.00,VWS V14.01,2013-02-16 21:19:00,
2013-02-16 16:20:00,70.6,45.8,29.84,NW,304,24.0,24.0,41,0.00,,SCT020,0.00,VWS V14.01,2013-02-16 21:20:00,
2013-02-16 16:22:00,70.4,45.6,29.84,NNW,328,10.0,13.0,41,0.00,,SCT020,0.00,VWS V14.01,2013-02-16 21:22:00,
2013-02-16 16:25:00,70.4,45.6,29.84,West,274,7.0,14.0,41,0.00,,SCT020,0.00,VWS V14.01,2013-02-16 21:25:00,
2013-02-16 16:27:00,70.3,47.4,29.84,West,278,6.0,13.0,44,0.00,,SCT020,0.00,VWS V14.01,2013-02-16 21:27:00,
2013-02-16 16:31:00,70.3,47.4,29.85,West,278,5.0,17.0,44,0.00,,SCT020,0.00,VWS V14.01,2013-02-16 21:31:00,
2013-02-16 16:33:00,70.1,47.8,29.85,West,263,7.0,16.0,45,0.00,,SCT020,0.00,VWS V14.01,2013-02-16 21:33:00,
2013-02-16 16:34:00,69.9,47.6,29.85,West,261,16.0,16.0,45,0.00,,SCT020,0.00,VWS V14.01,2013-02-16 21:34:00,
2013-02-16 16:37:00,69.8,48.1,29.85,WNW,301,10.0,14.0,46,0.00,,SCT020,0.00,VWS V14.01,2013-02-16 21:37:00,
2013-02-16 16:38:00,69.8,48.1,29.85,West,272,7.0,12.0,46,0.00,,SCT020,0.00,VWS V14.01,2013-02-16 21:38:00,
2013-02-16 16:43:00,69.4,47.7,29.85,West,281,10.0,10.0,46,0.00,,SCT020,0.00,VWS V14.01,2013-02-16 21:43:00,
2013-02-16 16:44:00,69.4,48.3,29.85,North,0,6.0,12.0,47,0.00,,SCT020,0.00,VWS V14.01,2013-02-16 21:44:00,
2013-02-16 16:48:00,69.4,47.7,29.85,NW,308,7.0,19.0,46,0.00,,SCT020,0.00,VWS V14.01,2013-02-16 21:48:00,
2013-02-16 16:50:00,69.4,47.7,29.85,West,261,6.0,8.0,46,0.00,,SCT020,0.00,VWS V14.01,2013-02-16 21:50:00,
2013-02-16 16:51:00,69.6,47.9,29.85,NW,316,5.0,8.0,46,0.00,,SCT020,0.00,VWS V14.01,2013-02-16 21:51:00,
2013-02-16 16:53:00,69.6,48.5,29.85,WNW,282,9.0,17.0,47,0.00,,SCT020,0.00,VWS V14.01,2013-02-16 21:53:00,
2013-02-16 16:58:00,69.4,48.9,29.85,WNW,296,7.0,14.0,48,0.00,,SCT020,0.00,VWS V14.01,2013-02-16 21:58:00,
2013-02-16 16:59:00,69.4,48.9,29.85,WNW,292,12.0,13.0,48,0.00,,SCT020,0.00,VWS V14.01,2013-02-16 21:59:00,
2013-02-16 17:01:00,69.4,48.9,29.85,WNW,285,7.0,13.0,48,0.00,,SCT020,0.00,VWS V14.01,2013-02-16 22:01:00,
2013-02-16 17:03:00,69.3,47.7,29.85,West,281,5.0,18.0,46,0.00,,SCT020,0.00,VWS V14.01,2013-02-16 22:03:00,
2013-02-16 17:05:00,69.3,47.7,29.85,NW,312,13.0,18.0,46,0.00,,SCT020,0.00,VWS V14.01,2013-02-16 22:05:00,
2013-02-16 17:07:00,69.1,47.5,29.85,West,264,7.0,11.0,46,0.00,,SCT020,0.00,VWS V14.01,2013-02-16 22:07:00,
2013-02-16 17:09:00,69.1,49.2,29.85,West,272,10.0,16.0,49,0.00,,SCT020,0.00,VWS V14.01,2013-02-16 22:09:00,
2013-02-16 17:10:00,68.9,49.0,29.85,WNW,292,7.0,10.0,49,0.00,,SCT020,0.00,VWS V14.01,2013-02-16 22:10:00,
2013-02-16 17:11:00,68.9,49.0,29.85,West,263,3.0,11.0,49,0.00,,SCT020,0.00,VWS V14.01,2013-02-16 22:11:00,
2013-02-16 17:13:00,68.8,47.2,29.85,NW,313,7.0,13.0,46,0.00,,SCT020,0.00,VWS V14.01,2013-02-16 22:13:00,
2013-02-16 17:14:00,68.8,47.8,29.85,West,274,6.0,14.0,47,0.00,,SCT020,0.00,VWS V14.01,2013-02-16 22:14:00,
2013-02-16 17:15:00,68.8,48.3,29.86,West,267,6.0,12.0,48,0.00,,SCT020,0.00,VWS V14.01,2013-02-16 22:15:00,
2013-02-16 17:18:00,68.6,47.6,29.86,West,275,12.0,12.0,47,0.00,,SCT020,0.00,VWS V14.01,2013-02-16 22:18:00,
2013-02-16 17:23:00,68.4,48.5,29.86,West,275,7.0,11.0,49,0.00,,SCT020,0.00,VWS V14.01,2013-02-16 22:23:00,
2013-02-16 17:24:00,68.4,48.5,29.86,NW,309,6.0,11.0,49,0.00,,SCT020,0.00,VWS V14.01,2013-02-16 22:24:00,
2013-02-16 17:26:00,68.4,48.5,29.86,WSW,247,5.0,13.0,49,0.00,,SCT020,0.00,VWS V14.01,2013-02-16 22:26:00,
2013-02-16 17:29:00,68.4,48.5,29.86,West,263,11.0,14.0,49,0.00,,SCT020,0.00,VWS V14.01,2013-02-16 22:29:00,
2013-02-16 17:30:00,68.3,48.4,29.86,WNW,294,7.0,14.0,49,0.00,,SCT020,0.00,VWS V14.01,2013-02-16 22:30:00,
2013-02-16 17:35:00,68.1,48.2,29.86,West,274,6.0,12.0,49,0.00,,SCT020,0.00,VWS V14.01,2013-02-16 22:35:00,
2013-02-16 17:36:00,68.1,47.7,29.86,WNW,298,11.0,17.0,48,0.00,,SCT020,0.00,VWS V14.01,2013-02-16 22:36:00,
2013-02-16 17:37:00,68.1,47.1,29.86,West,277,6.0,11.0,47,0.00,,SCT020,0.00,VWS V14.01,2013-02-16 22:37:00,
2013-02-16 17:38:00,68.1,47.1,29.86,West,281,12.0,12.0,47,0.00,,SCT020,0.00,VWS V14.01,2013-02-16 22:38:00,
2013-02-16 17:41:00,67.9,48.1,29.86,West,278,8.0,16.0,49,0.00,,SCT020,0.00,VWS V14.01,2013-02-16 22:41:00,
2013-02-16 17:43:00,67.9,48.1,29.86,NW,304,8.0,11.0,49,0.00,,SCT020,0.00,VWS V14.01,2013-02-16 22:43:00,
2013-02-16 17:46:00,67.8,48.5,29.87,NW,306,9.0,9.0,50,0.00,,SCT020,0.00,VWS V14.01,2013-02-16 22:46:00,
2013-02-16 17:48:00,67.8,48.0,29.87,WNW,295,10.0,11.0,49,0.00,,SCT020,0.00,VWS V14.01,2013-02-16 22:48:00,
2013-02-16 17:50:00,67.8,48.5,29.87,West,274,7.0,8.0,50,0.00,,SCT020,0.00,VWS V14.01,2013-02-16 22:50:00,
2013-02-16 17:51:00,67.6,48.3,29.87,WNW,288,8.0,11.0,50,0.00,,SCT020,0.00,VWS V14.01,2013-02-16 22:51:00,
2013-02-16 17:54:00,67.4,47.6,29.87,West,268,10.0,14.0,49,0.00,,SCT020,0.00,VWS V14.01,2013-02-16 22:54:00,
2013-02-16 17:56:00,67.4,48.1,29.87,WNW,298,10.0,11.0,50,0.00,,SCT020,0.00,VWS V14.01,2013-02-16 22:56:00,
2013-02-16 17:57:00,67.3,48.0,29.87,WNW,285,5.0,12.0,50,0.00,,SCT020,0.00,VWS V14.01,2013-02-16 22:57:00,
2013-02-16 18:00:00,67.3,48.6,29.88,WNW,287,7.0,7.0,51,0.00,,SCT020,0.00,VWS V14.01,2013-02-16 23:00:00,
2013-02-16 18:01:00,67.3,48.0,29.88,WNW,289,4.0,10.0,50,0.00,,SCT020,0.00,VWS V14.01,2013-02-16 23:01:00,
2013-02-16 18:02:00,67.3,48.0,29.88,WSW,254,6.0,7.0,50,0.00,,SCT020,0.00,VWS V14.01,2013-02-16 23:02:00,
2013-02-16 18:06:00,67.1,49.9,29.88,West,267,4.0,8.0,54,0.00,,SCT020,0.00,VWS V14.01,2013-02-16 23:06:00,
2013-02-16 18:07:00,67.1,48.9,29.88,WNW,301,11.0,13.0,52,0.00,,SCT020,0.00,VWS V14.01,2013-02-16 23:07:00,
2013-02-16 18:08:00,66.9,48.7,29.88,West,270,3.0,11.0,52,0.00,,SCT020,0.00,VWS V14.01,2013-02-16 23:08:00,
2013-02-16 18:10:00,66.9,49.2,29.88,WNW,295,10.0,10.0,53,0.00,,SCT020,0.00,VWS V14.01,2013-02-16 23:10:00,
2013-02-16 18:12:00,66.8,48.6,29.88,WNW,288,4.0,12.0,52,0.00,,SCT020,0.00,VWS V14.01,2013-02-16 23:12:00,
2013-02-16 18:15:00,66.6,49.5,29.88,West,274,2.0,8.0,54,0.00,,SCT020,0.00,VWS V14.01,2013-02-16 23:15:00,
2013-02-16 18:16:00,66.6,49.0,29.88,WNW,287,3.0,7.0,53,0.00,,SCT020,0.00,VWS V14.01,2013-02-16 23:16:00,
2013-02-16 18:18:00,66.4,48.8,29.88,NW,304,6.0,8.0,53,0.00,,SCT020,0.00,VWS V14.01,2013-02-16 23:18:00,
2013-02-16 18:19:00,66.4,49.3,29.88,WNW,284,5.0,7.0,54,0.00,,SCT020,0.00,VWS V14.01,2013-02-16 23:19:00,
2013-02-16 18:20:00,66.4,49.3,29.88,WSW,246,6.0,10.0,54,0.00,,SCT020,0.00,VWS V14.01,2013-02-16 23:20:00,
2013-02-16 18:22:00,66.3,49.7,29.88,West,267,5.0,6.0,55,0.00,,SCT020,0.00,VWS V14.01,2013-02-16 23:22:00,
2013-02-16 18:24:00,66.3,49.7,29.88,WNW,287,10.0,13.0,55,0.00,,SCT020,0.00,VWS V14.01,2013-02-16 23:24:00,
2013-02-16 18:27:00,66.1,49.5,29.88,West,278,8.0,17.0,55,0.00,,SCT020,0.00,VWS V14.01,2013-02-16 23:27:00,
2013-02-16 18:29:00,66.1,49.5,29.88,WSW,258,10.0,14.0,55,0.00,,SCT020,0.00,VWS V14.01,2013-02-16 23:29:00,
2013-02-16 18:30:00,66.1,49.5,29.89,WNW,282,5.0,13.0,55,0.00,,SCT020,0.00,VWS V14.01,2013-02-16 23:30:00,
2013-02-16 18:34:00,66.0,49.4,29.89,WNW,289,7.0,11.0,55,0.00,,SCT020,0.00,VWS V14.01,2013-02-16 23:34:00,
2013-02-16 18:35:00,66.0,49.4,29.89,West,275,7.0,14.0,55,0.00,,SCT020,0.00,VWS V14.01,2013-02-16 23:35:00,
2013-02-16 18:36:00,66.0,49.9,29.89,West,278,6.0,13.0,56,0.00,,SCT020,0.00,VWS V14.01,2013-02-16 23:36:00,
2013-02-16 18:38:00,65.8,49.7,29.89,West,268,5.0,11.0,56,0.00,,SCT020,0.00,VWS V14.01,2013-02-16 23:38:00,
2013-02-16 18:42:00,65.6,50.4,29.89,West,268,5.0,14.0,58,0.00,,SCT020,0.00,VWS V14.01,2013-02-16 23:42:00,
2013-02-16 18:44:00,65.6,50.0,29.89,WNW,302,5.0,7.0,57,0.00,,SCT020,0.00,VWS V14.01,2013-02-16 23:44:00,
2013-02-16 18:46:00,65.5,50.3,29.89,WNW,299,5.0,11.0,58,0.00,,SCT020,0.00,VWS V14.01,2013-02-16 23:46:00,
2013-02-16 18:48:00,65.5,50.8,29.89,West,267,8.0,8.0,59,0.00,,SCT020,0.00,VWS V14.01,2013-02-16 23:48:00,
2013-02-16 18:51:00,65.2,50.5,29.89,West,272,3.0,12.0,59,0.00,,SCT020,0.00,VWS V14.01,2013-02-16 23:51:00,
2013-02-16 18:52:00,65.2,51.0,29.89,WNW,284,7.0,8.0,60,0.00,,SCT020,0.00,VWS V14.01,2013-02-16 23:52:00,
2013-02-16 18:55:00,65.0,50.8,29.89,West,281,6.0,8.0,60,0.00,,SCT020,0.00,VWS V14.01,2013-02-16 23:55:00,
2013-02-16 18:56:00,64.8,50.6,29.89,NW,313,7.0,13.0,60,0.00,,SCT020,0.00,VWS V14.01,2013-02-16 23:56:00,
2013-02-16 18:58:00,64.7,50.5,29.89,WNW,294,5.0,10.0,60,0.00,,SCT020,0.00,VWS V14.01,2013-02-16 23:58:00,
2013-02-16 19:00:00,64.5,50.3,29.89,WNW,295,7.0,10.0,60,0.00,,SCT020,0.00,VWS V14.01,2013-02-17 00:00:00,
2013-02-16 19:01:00,64.5,50.3,29.89,West,277,12.0,16.0,60,0.00,,SCT020,0.00,VWS V14.01,2013-02-17 00:01:00,
2013-02-16 19:04:00,64.3,50.1,29.89,WNW,301,11.0,13.0,60,0.00,,SCT020,0.00,VWS V14.01,2013-02-17 00:04:00,
2013-02-16 19:05:00,64.3,50.1,29.89,NW,319,3.0,12.0,60,0.00,,SCT020,0.00,VWS V14.01,2013-02-17 00:05:00,
2013-02-16 19:06:00,64.2,50.0,29.89,West,271,5.0,7.0,60,0.00,,SCT020,0.00,VWS V14.01,2013-02-17 00:06:00,
2013-02-16 19:10:00,64.0,50.7,29.89,West,264,7.0,10.0,62,0.00,,SCT020,0.00,VWS V14.01,2013-02-17 00:10:00,
2013-02-16 19:11:00,63.9,50.6,29.89,WNW,287,10.0,10.0,62,0.00,,SCT020,0.00,VWS V14.01,2013-02-17 00:11:00,
2013-02-16 19:13:00,63.9,50.6,29.89,NW,319,5.0,15.0,62,0.00,,SCT020,0.00,VWS V14.01,2013-02-17 00:13:00,
2013-02-16 19:14:00,63.7,50.5,29.89,West,280,6.0,8.0,62,0.00,,SCT020,0.00,VWS V14.01,2013-02-17 00:14:00,
2013-02-16 19:16:00,63.7,50.5,29.90,WNW,295,10.0,13.0,62,0.00,,SCT020,0.00,VWS V14.01,2013-02-17 00:16:00,
2013-02-16 19:18:00,63.5,50.7,29.90,NW,305,3.0,9.0,63,0.00,,SCT020,0.00,VWS V14.01,2013-02-17 00:18:00,
2013-02-16 19:19:00,63.5,50.7,29.90,WNW,299,8.0,10.0,63,0.00,,SCT020,0.00,VWS V14.01,2013-02-17 00:19:00,
2013-02-16 19:22:00,63.4,50.6,29.90,WNW,296,11.0,11.0,63,0.00,,SCT020,0.00,VWS V14.01,2013-02-17 00:22:00,
2013-02-16 19:23:00,63.4,50.6,29.90,WNW,302,5.0,11.0,63,0.00,,SCT020,0.00,VWS V14.01,2013-02-17 00:23:00,
2013-02-16 19:26:00,63.2,50.8,29.90,WNW,295,6.0,7.0,64,0.00,,SCT020,0.00,VWS V14.01,2013-02-17 00:26:00,
2013-02-16 19:27:00,63.2,50.8,29.90,WNW,282,2.0,6.0,64,0.00,,SCT020,0.00,VWS V14.01,2013-02-17 00:27:00,
2013-02-16 19:28:00,63.2,50.8,29.90,West,280,2.0,8.0,64,0.00,,SCT020,0.00,VWS V14.01,2013-02-17 00:28:00,
2013-02-16 19:30:00,63.1,50.7,29.91,WNW,302,11.0,14.0,64,0.00,,SCT020,0.00,VWS V14.01,2013-02-17 00:30:00,
2013-02-16 19:34:00,62.9,50.5,29.91,WSW,256,5.0,11.0,64,0.00,,SCT020,0.00,VWS V14.01,2013-02-17 00:34:00,
2013-02-16 19:36:00,62.7,50.8,29.91,West,274,2.0,8.0,65,0.00,,SCT020,0.00,VWS V14.01,2013-02-17 00:36:00,
2013-02-16 19:39:00,62.6,50.7,29.91,WNW,284,5.0,8.0,65,0.00,,SCT020,0.00,VWS V14.01,2013-02-17 00:39:00,
2013-02-16 19:41:00,62.6,50.7,29.91,West,264,5.0,8.0,65,0.00,,SCT020,0.00,VWS V14.01,2013-02-17 00:41:00,
2013-02-16 19:43:00,62.4,50.5,29.91,WNW,302,2.0,8.0,65,0.00,,SCT020,0.00,VWS V14.01,2013-02-17 00:43:00,
2013-02-16 19:45:00,62.4,50.9,29.92,WNW,282,6.0,8.0,66,0.00,,SCT020,0.00,VWS V14.01,2013-02-17 00:45:00,
2013-02-16 19:46:00,62.3,50.8,29.92,WNW,291,9.0,11.0,66,0.00,,SCT020,0.00,VWS V14.01,2013-02-17 00:46:00,
2013-02-16 19:50:00,62.3,50.4,29.92,WNW,292,5.0,11.0,65,0.00,,SCT020,0.00,VWS V14.01,2013-02-17 00:50:00,
2013-02-16 19:51:00,62.1,50.2,29.92,WNW,282,2.0,8.0,65,0.00,,SCT020,0.00,VWS V14.01,2013-02-17 00:51:00,
2013-02-16 19:52:00,62.1,50.2,29.92,West,281,7.0,13.0,65,0.00,,SCT020,0.00,VWS V14.01,2013-02-17 00:52:00,
2013-02-16 19:56:00,62.0,50.1,29.92,West,267,8.0,12.0,65,0.00,,SCT020,0.00,VWS V14.01,2013-02-17 00:56:00,
2013-02-16 19:57:00,62.0,50.1,29.92,North,352,7.0,9.0,65,0.00,,SCT020,0.00,VWS V14.01,2013-02-17 00:57:00,
2013-02-16 19:58:00,62.0,49.7,29.92,NNW,336,8.0,13.0,64,0.00,,SCT020,0.00,VWS V14.01,2013-02-17 00:58:00,
2013-02-16 20:03:00,61.8,49.9,29.93,West,265,8.0,16.0,65,0.00,,SCT020,0.00,VWS V14.01,2013-02-17 01:03:00,
2013-02-16 20:04:00,61.8,49.5,29.93,WNW,291,10.0,12.0,64,0.00,,SCT020,0.00,VWS V14.01,2013-02-17 01:04:00,
2013-02-16 20:09:00,61.8,49.5,29.93,West,277,7.0,9.0,64,0.00,,SCT020,0.00,VWS V14.01,2013-02-17 01:09:00,
2013-02-16 20:11:00,61.6,49.7,29.93,NW,323,4.0,11.0,65,0.00,,SCT020,0.00,VWS V14.01,2013-02-17 01:11:00,
2013-02-16 20:13:00,61.6,50.1,29.93,NW,312,4.0,11.0,66,0.00,,SCT020,0.00,VWS V14.01,2013-02-17 01:13:00,
2013-02-16 20:14:00,61.6,49.7,29.93,West,267,4.0,7.0,65,0.00,,SCT020,0.00,VWS V14.01,2013-02-17 01:14:00,
2013-02-16 20:17:00,61.5,49.6,29.94,WNW,295,10.0,10.0,65,0.00,,SCT020,0.00,VWS V14.01,2013-02-17 01:17:00,
2013-02-16 20:19:00,61.5,49.6,29.94,WNW,294,8.0,13.0,65,0.00,,SCT020,0.00,VWS V14.01,2013-02-17 01:19:00,
2013-02-16 20:21:00,61.5,49.6,29.94,WNW,292,10.0,14.0,65,0.00,,SCT020,0.00,VWS V14.01,2013-02-17 01:21:00,
2013-02-16 20:24:00,61.3,49.5,29.94,NNW,329,3.0,9.0,65,0.00,,SCT020,0.00,VWS V14.01,2013-02-17 01:24:00,
2013-02-16 20:26:00,61.3,49.9,29.94,West,277,11.0,13.0,66,0.00,,SCT020,0.00,VWS V14.01,2013-02-17 01:26:00,
2013-02-16 20:27:00,61.3,49.9,29.94,WNW,291,8.0,11.0,66,0.00,,SCT020,0.00,VWS V14.01,2013-02-17 01:27:00,
2013-02-16 20:29:00,61.2,49.8,29.94,WNW,291,6.0,12.0,66,0.00,,SCT020,0.00,VWS V14.01,2013-02-17 01:29:00,
2013-02-16 20:32:00,61.0,49.6,29.95,NNW,333,12.0,19.0,66,0.00,,SCT020,0.00,VWS V14.01,2013-02-17 01:32:00,
2013-02-16 20:35:00,60.9,49.5,29.95,NW,315,3.0,8.0,66,0.00,,SCT020,0.00,VWS V14.01,2013-02-17 01:35:00,
2013-02-16 20:37:00,60.9,49.5,29.95,West,265,5.0,11.0,66,0.00,,SCT020,0.00,VWS V14.01,2013-02-17 01:37:00,
2013-02-16 20:39:00,60.7,49.3,29.95,West,272,6.0,12.0,66,0.00,,SCT020,0.00,VWS V14.01,2013-02-17 01:39:00,
2013-02-16 20:40:00,60.7,49.3,29.95,WNW,294,7.0,13.0,66,0.00,,SCT020,0.00,VWS V14.01,2013-02-17 01:40:00,
2013-02-16 20:44:00,60.4,48.2,29.95,WNW,298,10.0,10.0,64,0.00,,SCT020,0.00,VWS V14.01,2013-02-17 01:44:00,
2013-02-16 20:46:00,60.4,48.2,29.96,West,261,10.0,16.0,64,0.00,,SCT020,0.00,VWS V14.01,2013-02-17 01:46:00,
2013-02-16 20:49:00,60.2,48.0,29.96,NW,322,12.0,14.0,64,0.00,,SCT020,0.00,VWS V14.01,2013-02-17 01:49:00,
2013-02-16 20:52:00,60.1,47.5,29.96,WNW,289,11.0,16.0,63,0.00,,SCT020,0.00,VWS V14.01,2013-02-17 01:52:00,
2013-02-16 20:54:00,59.9,47.7,29.96,NNW,335,8.0,8.0,64,0.00,,SCT020,0.00,VWS V14.01,2013-02-17 01:54:00,
2013-02-16 20:56:00,59.9,47.7,29.96,West,275,7.0,10.0,64,0.00,,SCT020,0.00,VWS V14.01,2013-02-17 01:56:00,
2013-02-16 21:01:00,59.6,47.8,29.97,WNW,282,8.0,11.0,65,0.00,,SCT020,0.00,VWS V14.01,2013-02-17 02:01:00,
2013-02-16 21:07:00,59.3,48.0,29.97,WNW,284,5.0,11.0,66,0.00,,SCT020,0.00,VWS V14.01,2013-02-17 02:07:00,
2013-02-16 21:08:00,59.2,47.9,29.97,WNW,294,3.0,16.0,66,0.00,,SCT020,0.00,VWS V14.01,2013-02-17 02:08:00,
2013-02-16 21:12:00,58.9,47.2,29.97,WSW,253,7.0,12.0,65,0.00,,SCT020,0.00,VWS V14.01,2013-02-17 02:12:00,
2013-02-16 21:14:00,58.7,46.6,29.97,WNW,299,7.0,12.0,64,0.00,,SCT020,0.00,VWS V14.01,2013-02-17 02:14:00,
2013-02-16 21:15:00,58.7,46.6,29.98,NW,311,7.0,13.0,64,0.00,,SCT020,0.00,VWS V14.01,2013-02-17 02:15:00,
2013-02-16 21:19:00,58.4,46.3,29.98,NW,316,11.0,11.0,64,0.00,,SCT020,0.00,VWS V14.01,2013-02-17 02:19:00,
2013-02-16 21:23:00,58.3,46.6,29.98,WNW,287,9.0,11.0,65,0.00,,SCT020,0.00,VWS V14.01,2013-02-17 02:23:00,
2013-02-16 21:24:00,58.3,46.2,29.98,West,261,8.0,16.0,64,0.00,,SCT020,0.00,VWS V14.01,2013-02-17 02:24:00,
2013-02-16 21:27:00,58.1,46.0,29.98,WNW,287,3.0,12.0,64,0.00,,SCT020,0.00,VWS V14.01,2013-02-17 02:27:00,
2013-02-16 21:30:00,58.1,46.0,29.98,West,261,10.0,12.0,64,0.00,,SCT020,0.00,VWS V14.01,2013-02-17 02:30:00,
2013-02-16 21:33:00,58.0,46.3,29.98,NW,323,7.0,11.0,65,0.00,,SCT020,0.00,VWS V14.01,2013-02-17 02:33:00,
2013-02-16 21:37:00,57.8,46.1,29.98,West,278,6.0,6.0,65,0.00,,SCT020,0.00,VWS V14.01,2013-02-17 02:37:00,
2013-02-16 21:38:00,57.8,46.1,29.98,West,270,9.0,17.0,65,0.00,,SCT020,0.00,VWS V14.01,2013-02-17 02:38:00,
2013-02-16 21:40:00,57.6,45.5,29.98,NW,306,18.0,18.0,64,0.00,,SCT020,0.00,VWS V14.01,2013-02-17 02:40:00,
2013-02-16 21:43:00,57.5,45.4,29.98,WNW,292,4.0,12.0,64,0.00,,SCT020,0.00,VWS V14.01,2013-02-17 02:43:00,
2013-02-16 21:45:00,57.5,45.4,29.99,WNW,289,14.0,14.0,64,0.00,,SCT020,0.00,VWS V14.01,2013-02-17 02:45:00,
2013-02-16 21:46:00,57.5,45.4,29.99,WNW,291,3.0,14.0,64,0.00,,SCT020,0.00,VWS V14.01,2013-02-17 02:46:00,
2013-02-16 21:50:00,57.3,45.2,29.99,WNW,284,8.0,9.0,64,0.00,,SCT020,0.00,VWS V14.01,2013-02-17 02:50:00,
2013-02-16 21:51:00,57.3,45.7,29.99,NW,323,8.0,12.0,65,0.00,,SCT020,0.00,VWS V14.01,2013-02-17 02:51:00,
2013-02-16 21:52:00,57.3,45.7,29.99,WNW,285,4.0,12.0,65,0.00,,SCT020,0.00,VWS V14.01,2013-02-17 02:52:00,
2013-02-16 21:56:00,57.2,46.0,29.99,West,261,3.0,8.0,66,0.00,,SCT020,0.00,VWS V14.01,2013-02-17 02:56:00,
2013-02-16 21:59:00,57.0,45.8,29.99,WNW,298,7.0,10.0,66,0.00,,SCT020,0.00,VWS V14.01,2013-02-17 02:59:00,
2013-02-16 22:00:00,57.0,45.8,29.99,WNW,298,4.0,11.0,66,0.00,,SCT020,0.00,VWS V14.01,2013-02-17 03:00:00,
2013-02-16 22:01:00,56.9,45.7,29.99,NW,323,10.0,10.0,66,0.00,,SCT020,0.00,VWS V14.01,2013-02-17 03:01:00,
2013-02-16 22:04:00,56.9,46.1,29.99,WNW,299,6.0,7.0,67,0.00,,SCT020,0.00,VWS V14.01,2013-02-17 03:04:00,
2013-02-16 22:05:00,56.9,46.1,29.99,West,270,7.0,7.0,67,0.00,,SCT020,0.00,VWS V14.01,2013-02-17 03:05:00,
2013-02-16 22:06:00,56.7,45.9,29.99,NW,309,7.0,8.0,67,0.00,,SCT020,0.00,VWS V14.01,2013-02-17 03:06:00,
2013-02-16 22:10:00,56.6,45.8,29.99,West,268,6.0,7.0,67,0.00,,SCT020,0.00,VWS V14.01,2013-02-17 03:10:00,
2013-02-16 22:11:00,56.6,45.8,29.99,WNW,294,6.0,11.0,67,0.00,,SCT020,0.00,VWS V14.01,2013-02-17 03:11:00,
2013-02-16 22:12:00,56.6,45.8,29.99,NW,311,13.0,16.0,67,0.00,,SCT020,0.00,VWS V14.01,2013-02-17 03:12:00,
2013-02-16 22:13:00,56.6,45.8,29.99,West,275,7.0,13.0,67,0.00,,SCT020,0.00,VWS V14.01,2013-02-17 03:13:00,
2013-02-16 22:15:00,56.6,46.2,30.00,West,264,12.0,12.0,68,0.00,,SCT020,0.00,VWS V14.01,2013-02-17 03:15:00,
2013-02-16 22:17:00,56.5,46.1,30.00,SW,236,11.0,11.0,68,0.00,,SCT020,0.00,VWS V14.01,2013-02-17 03:17:00,
2013-02-16 22:20:00,56.5,45.7,30.00,WNW,292,7.0,11.0,67,0.00,,SCT020,0.00,VWS V14.01,2013-02-17 03:20:00,
2013-02-16 22:22:00,56.5,45.7,30.00,WNW,299,9.0,9.0,67,0.00,,SCT020,0.00,VWS V14.01,2013-02-17 03:22:00,
2013-02-16 22:24:00,56.3,45.5,30.00,WNW,296,12.0,13.0,67,0.00,,SCT020,0.00,VWS V14.01,2013-02-17 03:24:00,
2013-02-16 22:26:00,56.3,45.5,30.00,WNW,296,3.0,6.0,67,0.00,,SCT020,0.00,VWS V14.01,2013-02-17 03:26:00,
2013-02-16 22:29:00,56.3,45.5,30.00,West,272,10.0,10.0,67,0.00,,SCT020,0.00,VWS V14.01,2013-02-17 03:29:00,
2013-02-16 22:30:00,56.3,45.5,30.00,West,277,3.0,12.0,67,0.00,,SCT020,0.00,VWS V14.01,2013-02-17 03:30:00,
2013-02-16 22:32:00,56.2,45.4,30.00,West,263,7.0,11.0,67,0.00,,SCT020,0.00,VWS V14.01,2013-02-17 03:32:00,
2013-02-16 22:33:00,56.2,45.4,30.00,NW,315,7.0,14.0,67,0.00,,SCT020,0.00,VWS V14.01,2013-02-17 03:33:00,
2013-02-16 22:36:00,56.2,45.4,30.00,WSW,257,4.0,10.0,67,0.00,,SCT020,0.00,VWS V14.01,2013-02-17 03:36:00,
2013-02-16 22:37:00,56.2,45.4,30.00,WSW,250,9.0,9.0,67,0.00,,SCT020,0.00,VWS V14.01,2013-02-17 03:37:00,
2013-02-16 22:38:00,56.2,45.4,30.00,West,277,5.0,14.0,67,0.00,,SCT020,0.00,VWS V14.01,2013-02-17 03:38:00,
2013-02-16 22:40:00,56.0,45.2,30.00,WNW,302,6.0,11.0,67,0.00,,SCT020,0.00,VWS V14.01,2013-02-17 03:40:00,
2013-02-16 22:42:00,56.0,45.2,30.00,NW,319,7.0,9.0,67,0.00,,SCT020,0.00,VWS V14.01,2013-02-17 03:42:00,
2013-02-16 22:43:00,56.0,45.2,30.00,WNW,294,16.0,16.0,67,0.00,,SCT020,0.00,VWS V14.01,2013-02-17 03:43:00,
2013-02-16 22:45:00,55.9,45.5,30.00,NNW,339,2.0,11.0,68,0.00,,SCT020,0.00,VWS V14.01,2013-02-17 03:45:00,
2013-02-16 22:49:00,55.9,45.5,30.00,NW,309,11.0,12.0,68,0.00,,SCT020,0.00,VWS V14.01,2013-02-17 03:49:00,
2013-02-16 22:50:00,55.9,45.5,30.00,NNW,346,2.0,11.0,68,0.00,,SCT020,0.00,VWS V14.01,2013-02-17 03:50:00,
2013-02-16 22:51:00,55.9,45.5,30.00,WNW,284,5.0,8.0,68,0.00,,SCT020,0.00,VWS V14.01,2013-02-17 03:51:00,
2013-02-16 22:54:00,55.7,45.3,30.00,NW,325,5.0,7.0,68,0.00,,SCT020,0.00,VWS V14.01,2013-02-17 03:54:00,
2013-02-16 22:56:00,55.7,45.3,30.00,WNW,301,7.0,10.0,68,0.00,,SCT020,0.00,VWS V14.01,2013-02-17 03:56:00,
2013-02-16 22:57:00,55.7,45.3,30.00,NW,316,7.0,7.0,68,0.00,,SCT020,0.00,VWS V14.01,2013-02-17 03:57:00,
2013-02-16 22:59:00,55.7,45.3,30.00,NW,308,4.0,11.0,68,0.00,,SCT020,0.00,VWS V14.01,2013-02-17 03:59:00,
2013-02-16 23:01:00,55.7,45.3,30.00,WNW,288,4.0,10.0,68,0.00,,SCT020,0.00,VWS V14.01,2013-02-17 04:01:00,
2013-02-16 23:02:00,55.7,45.3,30.00,NW,306,6.0,6.0,68,0.00,,SCT020,0.00,VWS V14.01,2013-02-17 04:02:00,
2013-02-16 23:04:00,55.7,45.3,30.00,WNW,296,2.0,7.0,68,0.00,,SCT020,0.00,VWS V14.01,2013-02-17 04:04:00,
2013-02-16 23:05:00,55.7,45.3,30.00,West,265,5.0,10.0,68,0.00,,SCT020,0.00,VWS V14.01,2013-02-17 04:05:00,
2013-02-16 23:07:00,55.6,45.2,30.00,WNW,291,3.0,10.0,68,0.00,,SCT020,0.00,VWS V14.01,2013-02-17 04:07:00,
2013-02-16 23:09:00,55.6,45.2,30.00,West,265,8.0,11.0,68,0.00,,SCT020,0.00,VWS V14.01,2013-02-17 04:09:00,
2013-02-16 23:10:00,55.6,45.2,30.00,WNW,294,8.0,10.0,68,0.00,,SCT020,0.00,VWS V14.01,2013-02-17 04:10:00,
2013-02-16 23:13:00,55.6,45.2,30.00,NW,311,11.0,11.0,68,0.00,,SCT020,0.00,VWS V14.01,2013-02-17 04:13:00,
2013-02-16 23:15:00,55.4,45.0,30.01,WNW,288,6.0,12.0,68,0.00,,SCT020,0.00,VWS V14.01,2013-02-17 04:15:00,
2013-02-16 23:18:00,55.4,45.0,30.01,West,281,6.0,6.0,68,0.00,,SCT020,0.00,VWS V14.01,2013-02-17 04:18:00,
2013-02-16 23:20:00,55.4,45.4,30.01,West,278,11.0,11.0,69,0.00,,SCT020,0.00,VWS V14.01,2013-02-17 04:20:00,
2013-02-16 23:22:00,55.3,45.3,30.01,North,352,8.0,12.0,69,0.00,,SCT020,0.00,VWS V14.01,2013-02-17 04:22:00,
2013-02-16 23:23:00,55.3,45.3,30.01,NNW,344,5.0,10.0,69,0.00,,SCT020,0.00,VWS V14.01,2013-02-17 04:23:00,
2013-02-16 23:25:00,55.3,45.3,30.01,NNW,332,4.0,11.0,69,0.00,,SCT020,0.00,VWS V14.01,2013-02-17 04:25:00,
2013-02-16 23:28:00,55.1,45.1,30.01,NW,326,6.0,7.0,69,0.00,,SCT020,0.00,VWS V14.01,2013-02-17 04:28:00,
2013-02-16 23:29:00,55.1,45.1,30.01,NNW,340,2.0,6.0,69,0.00,,SCT020,0.00,VWS V14.01,2013-02-17 04:29:00,
2013-02-16 23:30:00,55.1,45.1,30.01,NW,322,5.0,7.0,69,0.00,,SCT020,0.00,VWS V14.01,2013-02-17 04:30:00,
2013-02-16 23:34:00,55.0,45.0,30.01,WNW,282,2.0,8.0,69,0.00,,SCT020,0.00,VWS V14.01,2013-02-17 04:34:00,
2013-02-16 23:35:00,55.0,45.0,30.01,NW,320,3.0,11.0,69,0.00,,SCT020,0.00,VWS V14.01,2013-02-17 04:35:00,
2013-02-16 23:36:00,55.0,45.0,30.01,NNW,337,5.0,5.0,69,0.00,,SCT020,0.00,VWS V14.01,2013-02-17 04:36:00,
2013-02-16 23:39:00,54.8,45.2,30.01,SW,233,5.0,9.0,70,0.00,,SCT020,0.00,VWS V14.01,2013-02-17 04:39:00,
2013-02-16 23:41:00,54.8,45.2,30.01,WNW,301,5.0,7.0,70,0.00,,SCT020,0.00,VWS V14.01,2013-02-17 04:41:00,
2013-02-16 23:44:00,54.7,45.1,30.01,WNW,287,5.0,9.0,70,0.00,,SCT020,0.00,VWS V14.01,2013-02-17 04:44:00,
2013-02-16 23:45:00,54.7,45.1,30.01,West,274,5.0,6.0,70,0.00,,SCT020,0.00,VWS V14.01,2013-02-17 04:45:00,
2013-02-16 23:47:00,54.7,45.5,30.01,NW,309,8.0,8.0,71,0.00,,SCT020,0.00,VWS V14.01,2013-02-17 04:47:00,
2013-02-16 23:48:00,54.7,45.5,30.01,WNW,294,3.0,8.0,71,0.00,,SCT020,0.00,VWS V14.01,2013-02-17 04:48:00,
2013-02-16 23:49:00,54.5,45.3,30.01,West,272,4.0,4.0,71,0.00,,SCT020,0.00,VWS V14.01,2013-02-17 04:49:00,
2013-02-16 23:51:00,54.5,45.3,30.01,NNW,335,2.0,4.0,71,0.00,,SCT020,0.00,VWS V14.01,2013-02-17 04:51:00,
2013-02-16 23:52:00,54.5,45.3,30.01,NNW,328,5.0,7.0,71,0.00,,SCT020,0.00,VWS V14.01,2013-02-17 04:52:00,
2013-02-16 23:54:00,54.4,45.2,30.01,West,277,3.0,6.0,71,0.00,,SCT020,0.00,VWS V14.01,2013-02-17 04:54:00,
2013-02-16 23:56:00,54.4,45.2,30.01,WNW,291,2.0,12.0,71,0.00,,SCT020,0.00,VWS V14.01,2013-02-17 04:56:00,
2013-02-16 23:58:00,54.4,45.2,30.01,NW,311,3.0,3.0,71,0.00,,SCT020,0.00,VWS V14.01,2013-02-17 04:58:00,
2013-02-16 23:59:00,54.2,45.0,30.01,NW,320,3.0,6.0,71,0.00,,SCT020,0.00,VWS V14.01,2013-02-17 04:59:00,